PWSweather.com
Personal Weather Stations
Station Observations
DL5ARK
SonnebergDE

SonnebergDE

Lat: 50.34904861, Lon: 11.18112087

Elevation: 1214

Station Type: Selfmade

http://www.sumbarg.de

High Low Average
Temperature 37.7°F3.2°C 23.8°F-4.6°C 32.7°F0.4°C
Dew Point 37.2°F2.9°C 26.6°F-3.0°C 33.6°F0.9°C
Winds 9.6 mph 15.4 kmh Calm Calm 2.0 mph S3.2 kmh S
Wind Gusts 9.6 mph15.4 kmh -- 2.0 mph3.2 kmh
Humidity 90% 73% 82%
Pressure 29.25 in990.5 mb 29.09 in985.1 mb -
Precipitation 0.04 in1.0 mm - -
Hour Temp Dew Point Humidity Winds Wind Gusts Pressure Precip Precip Rate Daily Precip Total
12:01 AM 23.2°F-4.9°C 26.5°F-3.1°C 81% 3.6 mph SE5.8 kmh SE 3.7 mph6.0 kmh 29.26 in990.9 mb 0.00 in0.0 mm 0.00 in0.0 mm 0.00 in0.0 mm
12:04 AM 23.5°F-4.7°C 26.4°F-3.1°C 81% 3.5 mph SE5.6 kmh SE 3.5 mph5.6 kmh 29.25 in990.5 mb 0.00 in0.0 mm 0.00 in0.0 mm 0.00 in0.0 mm
12:07 AM 23.6°F-4.7°C 26.4°F-3.1°C 81% 2.4 mph SSE3.9 kmh SSE 2.5 mph4.0 kmh 29.25 in990.5 mb 0.00 in0.0 mm 0.00 in0.0 mm 0.00 in0.0 mm
12:10 AM 24.1°F-4.4°C 26.5°F-3.1°C 82% 2.8 mph SE4.5 kmh SE 2.8 mph4.5 kmh 29.25 in990.5 mb 0.00 in0.0 mm 0.00 in0.0 mm 0.00 in0.0 mm
12:16 AM 24.6°F-4.1°C 26.4°F-3.1°C 81% Calm Calm -- 29.25 in990.5 mb 0.00 in0.0 mm 0.00 in0.0 mm 0.00 in0.0 mm
12:19 AM 24.0°F-4.4°C 26.5°F-3.1°C 81% Calm Calm -- 29.25 in990.5 mb 0.00 in0.0 mm 0.00 in0.0 mm 0.00 in0.0 mm
12:22 AM 24.5°F-4.2°C 26.9°F-2.8°C 82% Calm Calm -- 29.25 in990.5 mb 0.00 in0.0 mm 0.00 in0.0 mm 0.00 in0.0 mm
12:25 AM 24.5°F-4.2°C 26.7°F-2.9°C 82% Calm Calm -- 29.25 in990.5 mb 0.00 in0.0 mm 0.00 in0.0 mm 0.00 in0.0 mm
12:28 AM 24.5°F-4.2°C 26.7°F-2.9°C 82% 2.4 mph SE3.9 kmh SE 2.4 mph3.9 kmh 29.25 in990.5 mb 0.00 in0.0 mm 0.00 in0.0 mm 0.00 in0.0 mm
12:31 AM 24.7°F-4.1°C 26.9°F-2.8°C 82% Calm Calm -- 29.25 in990.5 mb 0.00 in0.0 mm 0.00 in0.0 mm 0.00 in0.0 mm
12:34 AM 24.8°F-4.0°C 26.7°F-2.9°C 82% Calm Calm -- 29.25 in990.5 mb 0.00 in0.0 mm 0.00 in0.0 mm 0.00 in0.0 mm
12:37 AM 25.1°F-3.8°C 26.9°F-2.8°C 82% 2.8 mph NNW4.5 kmh NNW 2.8 mph4.5 kmh 29.25 in990.5 mb 0.00 in0.0 mm 0.00 in0.0 mm 0.00 in0.0 mm
12:40 AM 25.1°F-3.8°C 27.1°F-2.7°C 82% 2.4 mph SSE3.9 kmh SSE 2.4 mph3.9 kmh 29.25 in990.5 mb 0.00 in0.0 mm 0.00 in0.0 mm 0.00 in0.0 mm
12:43 AM 25.0°F-3.9°C 27.0°F-2.8°C 81% 2.4 mph SSE3.9 kmh SSE 2.4 mph3.9 kmh 29.25 in990.5 mb 0.00 in0.0 mm 0.00 in0.0 mm 0.00 in0.0 mm
12:46 AM 25.1°F-3.8°C 27.1°F-2.7°C 82% Calm Calm -- 29.25 in990.5 mb 0.00 in0.0 mm 0.00 in0.0 mm 0.00 in0.0 mm
12:49 AM 24.7°F-4.1°C 27.1°F-2.7°C 81% Calm Calm -- 29.25 in990.5 mb 0.00 in0.0 mm 0.00 in0.0 mm 0.00 in0.0 mm
12:52 AM 24.8°F-4.0°C 27.2°F-2.7°C 81% Calm Calm -- 29.25 in990.5 mb 0.00 in0.0 mm 0.00 in0.0 mm 0.00 in0.0 mm
12:55 AM 24.7°F-4.1°C 27.0°F-2.8°C 81% Calm Calm -- 29.25 in990.5 mb 0.00 in0.0 mm 0.00 in0.0 mm 0.00 in0.0 mm
12:58 AM 24.1°F-4.4°C 27.0°F-2.8°C 81% Calm Calm -- 29.25 in990.5 mb 0.00 in0.0 mm 0.00 in0.0 mm 0.00 in0.0 mm
01:01 AM 23.8°F-4.6°C 26.8°F-2.9°C 80% Calm Calm -- 29.25 in990.5 mb 0.00 in0.0 mm 0.00 in0.0 mm 0.00 in0.0 mm
01:04 AM 24.5°F-4.2°C 26.6°F-3.0°C 81% 1.2 mph NNW1.9 kmh NNW 1.2 mph1.9 kmh 29.25 in990.5 mb 0.00 in0.0 mm 0.00 in0.0 mm 0.00 in0.0 mm
01:07 AM 24.6°F-4.1°C 26.8°F-2.9°C 82% Calm Calm -- 29.24 in990.2 mb 0.00 in0.0 mm 0.00 in0.0 mm 0.00 in0.0 mm
01:10 AM 24.7°F-4.1°C 27.1°F-2.7°C 82% Calm Calm -- 29.24 in990.2 mb 0.00 in0.0 mm 0.00 in0.0 mm 0.00 in0.0 mm
01:13 AM 24.7°F-4.1°C 27.0°F-2.8°C 82% Calm Calm -- 29.24 in990.2 mb 0.00 in0.0 mm 0.00 in0.0 mm 0.00 in0.0 mm
01:16 AM 25.4°F-3.7°C 27.1°F-2.7°C 82% 3.2 mph SE5.1 kmh SE 3.2 mph5.1 kmh 29.24 in990.2 mb 0.00 in0.0 mm 0.00 in0.0 mm 0.00 in0.0 mm
01:19 AM 25.6°F-3.6°C 27.6°F-2.4°C 83% Calm Calm -- 29.24 in990.2 mb 0.00 in0.0 mm 0.00 in0.0 mm 0.00 in0.0 mm
01:22 AM 25.5°F-3.6°C 27.5°F-2.5°C 83% 3.2 mph SE5.1 kmh SE 3.2 mph5.1 kmh 29.24 in990.2 mb 0.00 in0.0 mm 0.00 in0.0 mm 0.00 in0.0 mm
01:25 AM 26.5°F-3.1°C 27.7°F-2.4°C 83% 4.0 mph ESE6.4 kmh ESE 4.0 mph6.4 kmh 29.23 in989.8 mb 0.00 in0.0 mm 0.00 in0.0 mm 0.00 in0.0 mm
01:28 AM 26.8°F-2.9°C 28.0°F-2.2°C 83% 4.8 mph SE7.7 kmh SE 4.9 mph7.9 kmh 29.24 in990.2 mb 0.00 in0.0 mm 0.00 in0.0 mm 0.00 in0.0 mm
01:31 AM 26.4°F-3.1°C 27.7°F-2.4°C 83% Calm Calm -- 29.24 in990.2 mb 0.00 in0.0 mm 0.00 in0.0 mm 0.00 in0.0 mm
01:34 AM 26.8°F-2.9°C 27.8°F-2.3°C 83% 3.1 mph SE5.0 kmh SE 3.1 mph5.0 kmh 29.23 in989.8 mb 0.00 in0.0 mm 0.00 in0.0 mm 0.00 in0.0 mm
01:37 AM 27.1°F-2.7°C 28.1°F-2.2°C 83% 2.8 mph NNW4.5 kmh NNW 2.9 mph4.7 kmh 29.23 in989.8 mb 0.00 in0.0 mm 0.00 in0.0 mm 0.00 in0.0 mm
01:40 AM 27.2°F-2.7°C 27.9°F-2.3°C 83% 1.9 mph SSE3.1 kmh SSE 1.9 mph3.1 kmh 29.22 in989.5 mb 0.00 in0.0 mm 0.00 in0.0 mm 0.00 in0.0 mm
01:43 AM 27.4°F-2.6°C 27.8°F-2.3°C 82% 4.8 mph SE7.7 kmh SE 4.8 mph7.7 kmh 29.22 in989.5 mb 0.00 in0.0 mm 0.00 in0.0 mm 0.00 in0.0 mm
01:46 AM 26.8°F-2.9°C 27.9°F-2.3°C 82% 2.8 mph SE4.5 kmh SE 2.8 mph4.5 kmh 29.22 in989.5 mb 0.00 in0.0 mm 0.00 in0.0 mm 0.00 in0.0 mm
01:49 AM 27.3°F-2.6°C 28.0°F-2.2°C 82% 4.8 mph SE7.7 kmh SE 4.8 mph7.7 kmh 29.22 in989.5 mb 0.00 in0.0 mm 0.00 in0.0 mm 0.00 in0.0 mm
01:52 AM 26.9°F-2.8°C 27.8°F-2.3°C 82% Calm Calm -- 29.22 in989.5 mb 0.00 in0.0 mm 0.00 in0.0 mm 0.00 in0.0 mm
01:55 AM 26.9°F-2.8°C 27.8°F-2.3°C 82% Calm Calm -- 29.22 in989.5 mb 0.00 in0.0 mm 0.00 in0.0 mm 0.00 in0.0 mm
01:58 AM 26.8°F-2.9°C 27.8°F-2.3°C 81% Calm Calm -- 29.22 in989.5 mb 0.00 in0.0 mm 0.00 in0.0 mm 0.00 in0.0 mm
02:01 AM 26.5°F-3.1°C 27.9°F-2.3°C 81% Calm Calm -- 29.23 in989.8 mb 0.00 in0.0 mm 0.00 in0.0 mm 0.00 in0.0 mm
02:04 AM 26.6°F-3.0°C 27.9°F-2.3°C 82% Calm Calm -- 29.23 in989.8 mb 0.00 in0.0 mm 0.00 in0.0 mm 0.00 in0.0 mm
02:07 AM 26.7°F-2.9°C 27.8°F-2.3°C 82% Calm Calm -- 29.22 in989.5 mb 0.00 in0.0 mm 0.00 in0.0 mm 0.00 in0.0 mm
02:10 AM 26.9°F-2.8°C 27.8°F-2.3°C 82% Calm Calm -- 29.23 in989.8 mb 0.00 in0.0 mm 0.00 in0.0 mm 0.00 in0.0 mm
02:13 AM 26.7°F-2.9°C 27.7°F-2.4°C 81% Calm Calm -- 29.22 in989.5 mb 0.00 in0.0 mm 0.00 in0.0 mm 0.00 in0.0 mm
02:16 AM 26.6°F-3.0°C 27.6°F-2.4°C 81% Calm Calm -- 29.22 in989.5 mb 0.00 in0.0 mm 0.00 in0.0 mm 0.00 in0.0 mm
02:19 AM 26.4°F-3.1°C 27.1°F-2.7°C 80% 2.8 mph SE4.5 kmh SE 2.8 mph4.5 kmh 29.22 in989.5 mb 0.00 in0.0 mm 0.00 in0.0 mm 0.00 in0.0 mm
02:22 AM 26.6°F-3.0°C 27.2°F-2.7°C 80% Calm Calm -- 29.22 in989.5 mb 0.00 in0.0 mm 0.00 in0.0 mm 0.00 in0.0 mm
02:25 AM 26.3°F-3.2°C 27.1°F-2.7°C 80% 4.0 mph SSE6.4 kmh SSE 4.0 mph6.4 kmh 29.22 in989.5 mb 0.00 in0.0 mm 0.00 in0.0 mm 0.00 in0.0 mm
02:28 AM 25.9°F-3.4°C 27.3°F-2.6°C 81% 2.7 mph SSE4.3 kmh SSE 2.7 mph4.3 kmh 29.22 in989.5 mb 0.00 in0.0 mm 0.00 in0.0 mm 0.00 in0.0 mm
02:31 AM 26.2°F-3.2°C 27.2°F-2.7°C 81% 2.8 mph SE4.5 kmh SE 2.8 mph4.5 kmh 29.22 in989.5 mb 0.00 in0.0 mm 0.00 in0.0 mm 0.00 in0.0 mm
02:34 AM 26.0°F-3.3°C 27.3°F-2.6°C 81% Calm Calm -- 29.22 in989.5 mb 0.00 in0.0 mm 0.00 in0.0 mm 0.00 in0.0 mm
02:37 AM 26.0°F-3.3°C 27.0°F-2.8°C 80% Calm Calm -- 29.22 in989.5 mb 0.00 in0.0 mm 0.00 in0.0 mm 0.00 in0.0 mm
02:40 AM 26.4°F-3.1°C 27.3°F-2.6°C 81% Calm Calm -- 29.22 in989.5 mb 0.00 in0.0 mm 0.00 in0.0 mm 0.00 in0.0 mm
02:43 AM 26.4°F-3.1°C 27.0°F-2.8°C 80% Calm Calm -- 29.22 in989.5 mb 0.00 in0.0 mm 0.00 in0.0 mm 0.00 in0.0 mm
02:46 AM 26.4°F-3.1°C 26.8°F-2.9°C 80% Calm Calm -- 29.22 in989.5 mb 0.00 in0.0 mm 0.00 in0.0 mm 0.00 in0.0 mm
02:49 AM 26.8°F-2.9°C 27.5°F-2.5°C 81% Calm Calm -- 29.22 in989.5 mb 0.00 in0.0 mm 0.00 in0.0 mm 0.00 in0.0 mm
02:52 AM 26.7°F-2.9°C 27.7°F-2.4°C 82% Calm Calm -- 29.22 in989.5 mb 0.00 in0.0 mm 0.00 in0.0 mm 0.00 in0.0 mm
02:55 AM 26.9°F-2.8°C 27.8°F-2.3°C 82% 4.0 mph NNW6.4 kmh NNW 4.1 mph6.6 kmh 29.22 in989.5 mb 0.00 in0.0 mm 0.00 in0.0 mm 0.00 in0.0 mm
02:58 AM 27.8°F-2.3°C 27.6°F-2.4°C 82% 5.6 mph SE9.0 kmh SE 5.7 mph9.2 kmh 29.21 in989.2 mb 0.00 in0.0 mm 0.00 in0.0 mm 0.00 in0.0 mm
03:01 AM 28.0°F-2.2°C 27.9°F-2.3°C 82% 3.5 mph NNW5.6 kmh NNW 3.5 mph5.6 kmh 29.21 in989.2 mb 0.00 in0.0 mm 0.00 in0.0 mm 0.00 in0.0 mm
03:04 AM 28.1°F-2.2°C 28.1°F-2.2°C 81% 3.6 mph SE5.8 kmh SE 3.6 mph5.8 kmh 29.21 in989.2 mb 0.00 in0.0 mm 0.00 in0.0 mm 0.00 in0.0 mm
03:07 AM 27.7°F-2.4°C 28.4°F-2.0°C 82% 2.0 mph SSE3.2 kmh SSE 2.0 mph3.2 kmh 29.21 in989.2 mb 0.00 in0.0 mm 0.00 in0.0 mm 0.00 in0.0 mm
03:10 AM 28.0°F-2.2°C 27.7°F-2.4°C 80% 1.6 mph NNW2.6 kmh NNW 1.6 mph2.6 kmh 29.22 in989.5 mb 0.00 in0.0 mm 0.00 in0.0 mm 0.00 in0.0 mm
03:13 AM 27.8°F-2.3°C 28.0°F-2.2°C 80% Calm Calm -- 29.22 in989.5 mb 0.00 in0.0 mm 0.00 in0.0 mm 0.00 in0.0 mm
03:22 AM 28.0°F-2.2°C 27.8°F-2.3°C 80% 3.8 mph SE6.1 kmh SE 3.9 mph6.3 kmh 29.21 in989.2 mb 0.00 in0.0 mm 0.00 in0.0 mm 0.00 in0.0 mm
03:25 AM 28.3°F-2.1°C 27.9°F-2.3°C 80% 3.2 mph SSE5.1 kmh SSE 3.3 mph5.3 kmh 29.21 in989.2 mb 0.00 in0.0 mm 0.00 in0.0 mm 0.00 in0.0 mm
03:28 AM 27.8°F-2.3°C 28.3°F-2.1°C 81% 2.8 mph SE4.5 kmh SE 2.8 mph4.5 kmh 29.21 in989.2 mb 0.00 in0.0 mm 0.00 in0.0 mm 0.00 in0.0 mm
03:31 AM 28.1°F-2.2°C 28.1°F-2.2°C 80% 2.8 mph SSE4.5 kmh SSE 2.8 mph4.5 kmh 29.21 in989.2 mb 0.00 in0.0 mm 0.00 in0.0 mm 0.00 in0.0 mm
03:37 AM 28.3°F-2.1°C 28.2°F-2.1°C 80% 3.6 mph SE5.8 kmh SE 3.6 mph5.8 kmh 29.21 in989.2 mb 0.00 in0.0 mm 0.00 in0.0 mm 0.00 in0.0 mm
03:40 AM 28.4°F-2.0°C 28.3°F-2.1°C 80% 2.8 mph SE4.5 kmh SE 2.8 mph4.5 kmh 29.21 in989.2 mb 0.00 in0.0 mm 0.00 in0.0 mm 0.00 in0.0 mm
03:43 AM 28.3°F-2.1°C 28.2°F-2.1°C 79% 3.2 mph NNW5.1 kmh NNW 3.2 mph5.1 kmh 29.21 in989.2 mb 0.00 in0.0 mm 0.00 in0.0 mm 0.00 in0.0 mm
03:46 AM 28.2°F-2.1°C 28.4°F-2.0°C 80% 4.6 mph SE7.4 kmh SE 4.6 mph7.4 kmh 29.21 in989.2 mb 0.00 in0.0 mm 0.00 in0.0 mm 0.00 in0.0 mm
03:49 AM 28.1°F-2.2°C 28.4°F-2.0°C 80% 1.2 mph SSE1.9 kmh SSE 1.2 mph1.9 kmh 29.20 in988.8 mb 0.00 in0.0 mm 0.00 in0.0 mm 0.00 in0.0 mm
03:52 AM 28.5°F-1.9°C 28.1°F-2.2°C 80% 4.4 mph SE7.1 kmh SE 4.5 mph7.2 kmh 29.21 in989.2 mb 0.00 in0.0 mm 0.00 in0.0 mm 0.00 in0.0 mm
03:55 AM 28.5°F-1.9°C 28.4°F-2.0°C 80% 2.4 mph SE3.9 kmh SE 2.4 mph3.9 kmh 29.20 in988.8 mb 0.00 in0.0 mm 0.00 in0.0 mm 0.00 in0.0 mm
03:58 AM 28.3°F-2.1°C 28.2°F-2.1°C 79% Calm Calm -- 29.21 in989.2 mb 0.00 in0.0 mm 0.00 in0.0 mm 0.00 in0.0 mm
04:01 AM 28.3°F-2.1°C 28.5°F-1.9°C 79% Calm Calm -- 29.21 in989.2 mb 0.00 in0.0 mm 0.00 in0.0 mm 0.00 in0.0 mm
04:04 AM 28.2°F-2.1°C 28.1°F-2.2°C 79% Calm Calm -- 29.21 in989.2 mb 0.00 in0.0 mm 0.00 in0.0 mm 0.00 in0.0 mm
04:07 AM 28.3°F-2.1°C 28.4°F-2.0°C 79% Calm Calm -- 29.20 in988.8 mb 0.00 in0.0 mm 0.00 in0.0 mm 0.00 in0.0 mm
04:10 AM 28.3°F-2.1°C 28.5°F-1.9°C 80% 2.7 mph NNW4.3 kmh NNW 2.7 mph4.3 kmh 29.20 in988.8 mb 0.00 in0.0 mm 0.00 in0.0 mm 0.00 in0.0 mm
04:13 AM 28.3°F-2.1°C 29.0°F-1.7°C 81% 2.8 mph SE4.5 kmh SE 2.9 mph4.7 kmh 29.20 in988.8 mb 0.00 in0.0 mm 0.00 in0.0 mm 0.00 in0.0 mm
04:16 AM 28.5°F-1.9°C 28.8°F-1.8°C 81% 2.8 mph NNW4.5 kmh NNW 2.8 mph4.5 kmh 29.19 in988.5 mb 0.00 in0.0 mm 0.00 in0.0 mm 0.00 in0.0 mm
04:19 AM 28.5°F-1.9°C 28.7°F-1.8°C 80% Calm Calm -- 29.21 in989.2 mb 0.00 in0.0 mm 0.00 in0.0 mm 0.00 in0.0 mm
04:25 AM 28.6°F-1.9°C 29.3°F-1.5°C 81% 2.0 mph S3.2 kmh S 2.0 mph3.2 kmh 29.20 in988.8 mb 0.00 in0.0 mm 0.00 in0.0 mm 0.00 in0.0 mm
04:28 AM 28.9°F-1.7°C 28.8°F-1.8°C 80% 3.1 mph SSE5.0 kmh SSE 3.2 mph5.1 kmh 29.20 in988.8 mb 0.00 in0.0 mm 0.00 in0.0 mm 0.00 in0.0 mm
04:31 AM 28.7°F-1.8°C 28.7°F-1.8°C 80% 2.8 mph SSE4.5 kmh SSE 2.9 mph4.7 kmh 29.21 in989.2 mb 0.00 in0.0 mm 0.00 in0.0 mm 0.00 in0.0 mm
04:34 AM 28.4°F-2.0°C 29.1°F-1.6°C 80% 3.2 mph SE5.1 kmh SE 3.3 mph5.3 kmh 29.21 in989.2 mb 0.00 in0.0 mm 0.00 in0.0 mm 0.00 in0.0 mm
04:37 AM 28.4°F-2.0°C 28.7°F-1.8°C 80% 3.2 mph NNW5.1 kmh NNW 3.2 mph5.1 kmh 29.20 in988.8 mb 0.00 in0.0 mm 0.00 in0.0 mm 0.00 in0.0 mm
04:40 AM 28.3°F-2.1°C 28.9°F-1.7°C 81% 4.0 mph SE6.4 kmh SE 4.0 mph6.4 kmh 29.21 in989.2 mb 0.00 in0.0 mm 0.00 in0.0 mm 0.00 in0.0 mm
04:43 AM 28.4°F-2.0°C 29.3°F-1.5°C 81% 2.7 mph SE4.3 kmh SE 2.8 mph4.5 kmh 29.21 in989.2 mb 0.00 in0.0 mm 0.00 in0.0 mm 0.00 in0.0 mm
04:46 AM 28.5°F-1.9°C 29.3°F-1.5°C 82% 4.4 mph SE7.1 kmh SE 4.4 mph7.1 kmh 29.21 in989.2 mb 0.00 in0.0 mm 0.00 in0.0 mm 0.00 in0.0 mm
04:49 AM 28.7°F-1.8°C 29.4°F-1.4°C 82% 3.6 mph NNW5.8 kmh NNW 3.7 mph6.0 kmh 29.20 in988.8 mb 0.00 in0.0 mm 0.00 in0.0 mm 0.00 in0.0 mm
04:55 AM 28.7°F-1.8°C 30.0°F-1.1°C 84% 5.3 mph SE8.5 kmh SE 5.3 mph8.5 kmh 29.20 in988.8 mb 0.00 in0.0 mm 0.00 in0.0 mm 0.00 in0.0 mm
04:58 AM 28.6°F-1.9°C 29.9°F-1.2°C 84% 5.0 mph SE8.0 kmh SE 5.1 mph8.2 kmh 29.20 in988.8 mb 0.00 in0.0 mm 0.00 in0.0 mm 0.00 in0.0 mm
05:01 AM 28.6°F-1.9°C 30.1°F-1.1°C 85% 5.6 mph SE9.0 kmh SE 5.6 mph9.0 kmh 29.20 in988.8 mb 0.00 in0.0 mm 0.00 in0.0 mm 0.00 in0.0 mm
05:04 AM 28.5°F-1.9°C 30.2°F-1.0°C 85% 4.8 mph SE7.7 kmh SE 4.9 mph7.9 kmh 29.20 in988.8 mb 0.00 in0.0 mm 0.00 in0.0 mm 0.00 in0.0 mm
05:07 AM 28.5°F-1.9°C 30.4°F-0.9°C 85% 3.5 mph SE5.6 kmh SE 3.5 mph5.6 kmh 29.20 in988.8 mb 0.00 in0.0 mm 0.00 in0.0 mm 0.00 in0.0 mm
05:10 AM 28.6°F-1.9°C 30.1°F-1.1°C 85% 3.2 mph SE5.1 kmh SE 3.2 mph5.1 kmh 29.20 in988.8 mb 0.00 in0.0 mm 0.00 in0.0 mm 0.00 in0.0 mm
05:13 AM 28.6°F-1.9°C 30.2°F-1.0°C 85% 4.0 mph SE6.4 kmh SE 4.0 mph6.4 kmh 29.19 in988.5 mb 0.00 in0.0 mm 0.00 in0.0 mm 0.00 in0.0 mm
05:16 AM 28.6°F-1.9°C 30.6°F-0.8°C 86% 3.6 mph SE5.8 kmh SE 3.7 mph6.0 kmh 29.19 in988.5 mb 0.00 in0.0 mm 0.00 in0.0 mm 0.00 in0.0 mm
05:19 AM 28.5°F-1.9°C 30.7°F-0.7°C 86% 3.6 mph SE5.8 kmh SE 3.6 mph5.8 kmh 29.19 in988.5 mb 0.00 in0.0 mm 0.00 in0.0 mm 0.00 in0.0 mm
05:25 AM 28.7°F-1.8°C 30.7°F-0.7°C 87% 5.6 mph SE9.0 kmh SE 5.6 mph9.0 kmh 29.19 in988.5 mb 0.00 in0.0 mm 0.00 in0.0 mm 0.00 in0.0 mm
05:28 AM 28.7°F-1.8°C 30.9°F-0.6°C 87% 2.8 mph SE4.5 kmh SE 2.8 mph4.5 kmh 29.19 in988.5 mb 0.00 in0.0 mm 0.00 in0.0 mm 0.00 in0.0 mm
05:31 AM 28.7°F-1.8°C 30.7°F-0.7°C 86% 2.4 mph SE3.9 kmh SE 2.4 mph3.9 kmh 29.19 in988.5 mb 0.00 in0.0 mm 0.00 in0.0 mm 0.00 in0.0 mm
05:34 AM 28.7°F-1.8°C 30.8°F-0.7°C 86% 2.4 mph SE3.9 kmh SE 2.4 mph3.9 kmh 29.19 in988.5 mb 0.00 in0.0 mm 0.00 in0.0 mm 0.00 in0.0 mm
05:37 AM 28.7°F-1.8°C 30.7°F-0.7°C 85% Calm Calm -- 29.19 in988.5 mb 0.00 in0.0 mm 0.00 in0.0 mm 0.00 in0.0 mm
05:40 AM 28.6°F-1.9°C 31.0°F-0.6°C 86% Calm Calm -- 29.19 in988.5 mb 0.00 in0.0 mm 0.00 in0.0 mm 0.00 in0.0 mm
05:43 AM 28.9°F-1.7°C 30.8°F-0.7°C 86% 2.4 mph SE3.9 kmh SE 2.4 mph3.9 kmh 29.19 in988.5 mb 0.00 in0.0 mm 0.00 in0.0 mm 0.00 in0.0 mm
05:46 AM 28.9°F-1.7°C 30.9°F-0.6°C 86% 4.4 mph SE7.1 kmh SE 4.5 mph7.2 kmh 29.19 in988.5 mb 0.00 in0.0 mm 0.00 in0.0 mm 0.00 in0.0 mm
05:49 AM 28.7°F-1.8°C 31.0°F-0.6°C 87% 6.0 mph SE9.7 kmh SE 6.0 mph9.7 kmh 29.18 in988.1 mb 0.00 in0.0 mm 0.00 in0.0 mm 0.00 in0.0 mm
05:52 AM 28.9°F-1.7°C 31.4°F-0.3°C 89% 4.5 mph SE7.2 kmh SE 4.5 mph7.2 kmh 29.18 in988.1 mb 0.00 in0.0 mm 0.00 in0.0 mm 0.00 in0.0 mm
05:55 AM 28.9°F-1.7°C 31.4°F-0.3°C 89% 5.4 mph SSE8.7 kmh SSE 5.4 mph8.7 kmh 29.18 in988.1 mb 0.00 in0.0 mm 0.00 in0.0 mm 0.00 in0.0 mm
05:58 AM 28.9°F-1.7°C 31.5°F-0.3°C 88% 4.4 mph SE7.1 kmh SE 4.5 mph7.2 kmh 29.18 in988.1 mb 0.00 in0.0 mm 0.00 in0.0 mm 0.00 in0.0 mm
06:01 AM 28.9°F-1.7°C 31.6°F-0.2°C 89% 4.0 mph SE6.4 kmh SE 4.0 mph6.4 kmh 29.18 in988.1 mb 0.00 in0.0 mm 0.00 in0.0 mm 0.00 in0.0 mm
06:04 AM 28.9°F-1.7°C 31.7°F-0.2°C 89% 4.8 mph SE7.7 kmh SE 4.8 mph7.7 kmh 29.18 in988.1 mb 0.00 in0.0 mm 0.00 in0.0 mm 0.00 in0.0 mm
06:07 AM 29.1°F-1.6°C 31.5°F-0.3°C 89% 7.3 mph SE11.7 kmh SE 7.3 mph11.7 kmh 29.18 in988.1 mb 0.00 in0.0 mm 0.00 in0.0 mm 0.00 in0.0 mm
06:10 AM 29.1°F-1.6°C 31.5°F-0.3°C 89% 4.6 mph NNW7.4 kmh NNW 4.6 mph7.4 kmh 29.18 in988.1 mb 0.00 in0.0 mm 0.00 in0.0 mm 0.00 in0.0 mm
06:13 AM 29.1°F-1.6°C 31.7°F-0.2°C 89% 5.2 mph SE8.4 kmh SE 5.3 mph8.5 kmh 29.18 in988.1 mb 0.00 in0.0 mm 0.00 in0.0 mm 0.00 in0.0 mm
06:16 AM 29.2°F-1.6°C 32.1°F0.1°C 89% 3.2 mph NNW5.1 kmh NNW 3.3 mph5.3 kmh 29.18 in988.1 mb 0.00 in0.0 mm 0.00 in0.0 mm 0.00 in0.0 mm
06:19 AM 29.3°F-1.5°C 31.9°F-0.1°C 89% 3.8 mph SE6.1 kmh SE 4.1 mph6.6 kmh 29.18 in988.1 mb 0.00 in0.0 mm 0.00 in0.0 mm 0.00 in0.0 mm
06:22 AM 29.3°F-1.5°C 32.1°F0.1°C 89% 4.4 mph SE7.1 kmh SE 4.4 mph7.1 kmh 29.18 in988.1 mb 0.00 in0.0 mm 0.00 in0.0 mm 0.00 in0.0 mm
06:25 AM 29.4°F-1.4°C 31.6°F-0.2°C 88% 4.8 mph NNW7.7 kmh NNW 4.8 mph7.7 kmh 29.18 in988.1 mb 0.00 in0.0 mm 0.00 in0.0 mm 0.00 in0.0 mm
06:28 AM 29.4°F-1.4°C 32.1°F0.1°C 89% 3.6 mph SE5.8 kmh SE 3.7 mph6.0 kmh 29.18 in988.1 mb 0.00 in0.0 mm 0.00 in0.0 mm 0.00 in0.0 mm
06:31 AM 29.4°F-1.4°C 32.2°F0.1°C 89% 4.4 mph SE7.1 kmh SE 4.5 mph7.2 kmh 29.18 in988.1 mb 0.00 in0.0 mm 0.00 in0.0 mm 0.00 in0.0 mm
06:34 AM 29.4°F-1.4°C 32.1°F0.1°C 89% 3.6 mph SE5.8 kmh SE 3.6 mph5.8 kmh 29.18 in988.1 mb 0.00 in0.0 mm 0.00 in0.0 mm 0.00 in0.0 mm
06:37 AM 29.4°F-1.4°C 32.2°F0.1°C 89% 4.4 mph SE7.1 kmh SE 4.4 mph7.1 kmh 29.18 in988.1 mb 0.00 in0.0 mm 0.00 in0.0 mm 0.00 in0.0 mm
06:40 AM 29.5°F-1.4°C 32.4°F0.2°C 89% 3.1 mph NNW5.0 kmh NNW 3.1 mph5.0 kmh 29.18 in988.1 mb 0.00 in0.0 mm 0.00 in0.0 mm 0.00 in0.0 mm
06:43 AM 29.5°F-1.4°C 32.2°F0.1°C 89% 2.8 mph SE4.5 kmh SE 2.8 mph4.5 kmh 29.19 in988.5 mb 0.00 in0.0 mm 0.00 in0.0 mm 0.00 in0.0 mm
06:46 AM 29.5°F-1.4°C 32.3°F0.2°C 89% 1.6 mph SE2.6 kmh SE 1.6 mph2.6 kmh 29.19 in988.5 mb 0.00 in0.0 mm 0.00 in0.0 mm 0.00 in0.0 mm
06:49 AM 29.5°F-1.4°C 32.2°F0.1°C 89% Calm Calm -- 29.19 in988.5 mb 0.00 in0.0 mm 0.00 in0.0 mm 0.00 in0.0 mm
06:52 AM 29.4°F-1.4°C 32.6°F0.3°C 89% Calm Calm -- 29.19 in988.5 mb 0.00 in0.0 mm 0.00 in0.0 mm 0.00 in0.0 mm
06:55 AM 29.5°F-1.4°C 32.5°F0.3°C 89% Calm Calm -- 29.19 in988.5 mb 0.00 in0.0 mm 0.00 in0.0 mm 0.00 in0.0 mm
06:58 AM 29.5°F-1.4°C 32.5°F0.3°C 89% Calm Calm -- 29.19 in988.5 mb 0.00 in0.0 mm 0.00 in0.0 mm 0.00 in0.0 mm
07:01 AM 29.5°F-1.4°C 32.6°F0.3°C 89% Calm Calm -- 29.19 in988.5 mb 0.00 in0.0 mm 0.00 in0.0 mm 0.00 in0.0 mm
07:04 AM 29.5°F-1.4°C 32.6°F0.3°C 89% 4.0 mph NNW6.4 kmh NNW 4.0 mph6.4 kmh 29.18 in988.1 mb 0.00 in0.0 mm 0.00 in0.0 mm 0.00 in0.0 mm
07:07 AM 29.5°F-1.4°C 32.5°F0.3°C 89% 6.1 mph SE9.8 kmh SE 6.1 mph9.8 kmh 29.16 in987.5 mb 0.00 in0.0 mm 0.00 in0.0 mm 0.00 in0.0 mm
07:10 AM 29.6°F-1.3°C 32.6°F0.3°C 90% 4.3 mph SE6.9 kmh SE 4.4 mph7.1 kmh 29.17 in987.8 mb 0.00 in0.0 mm 0.00 in0.0 mm 0.00 in0.0 mm
07:13 AM 29.6°F-1.3°C 32.7°F0.4°C 90% Calm Calm -- 29.19 in988.5 mb 0.00 in0.0 mm 0.00 in0.0 mm 0.00 in0.0 mm
07:16 AM 29.6°F-1.3°C 32.8°F0.4°C 89% Calm Calm -- 29.19 in988.5 mb 0.00 in0.0 mm 0.00 in0.0 mm 0.00 in0.0 mm
07:19 AM 29.5°F-1.4°C 32.6°F0.3°C 89% Calm Calm -- 29.19 in988.5 mb 0.00 in0.0 mm 0.00 in0.0 mm 0.00 in0.0 mm
07:22 AM 29.5°F-1.4°C 32.8°F0.4°C 89% Calm Calm -- 29.19 in988.5 mb 0.00 in0.0 mm 0.00 in0.0 mm 0.00 in0.0 mm
07:25 AM 29.4°F-1.4°C 32.6°F0.3°C 88% Calm Calm -- 29.19 in988.5 mb 0.00 in0.0 mm 0.00 in0.0 mm 0.00 in0.0 mm
07:28 AM 29.5°F-1.4°C 32.7°F0.4°C 88% Calm Calm -- 29.18 in988.1 mb 0.00 in0.0 mm 0.00 in0.0 mm 0.00 in0.0 mm
07:31 AM 29.6°F-1.3°C 32.9°F0.5°C 89% 0.8 mph SE1.3 kmh SE 0.8 mph1.3 kmh 29.19 in988.5 mb 0.00 in0.0 mm 0.00 in0.0 mm 0.00 in0.0 mm
07:34 AM 29.6°F-1.3°C 33.0°F0.6°C 89% Calm Calm -- 29.19 in988.5 mb 0.00 in0.0 mm 0.00 in0.0 mm 0.00 in0.0 mm
07:37 AM 29.6°F-1.3°C 32.7°F0.4°C 89% 0.4 mph SSE0.6 kmh SSE 0.4 mph0.6 kmh 29.19 in988.5 mb 0.00 in0.0 mm 0.00 in0.0 mm 0.00 in0.0 mm
07:43 AM 29.9°F-1.2°C 32.8°F0.4°C 89% 4.4 mph SE7.1 kmh SE 4.5 mph7.2 kmh 29.18 in988.1 mb 0.00 in0.0 mm 0.00 in0.0 mm 0.00 in0.0 mm
07:49 AM 30.0°F-1.1°C 32.4°F0.2°C 88% 3.6 mph SSE5.8 kmh SSE 3.6 mph5.8 kmh 29.18 in988.1 mb 0.00 in0.0 mm 0.00 in0.0 mm 0.00 in0.0 mm
07:52 AM 30.1°F-1.1°C 32.4°F0.2°C 88% 2.4 mph S3.9 kmh S 2.4 mph3.9 kmh 29.19 in988.5 mb 0.00 in0.0 mm 0.00 in0.0 mm 0.00 in0.0 mm
07:55 AM 30.0°F-1.1°C 32.7°F0.4°C 88% Calm Calm -- 29.19 in988.5 mb 0.00 in0.0 mm 0.00 in0.0 mm 0.00 in0.0 mm
07:58 AM 30.1°F-1.1°C 32.5°F0.3°C 87% 4.0 mph SE6.4 kmh SE 4.1 mph6.6 kmh 29.19 in988.5 mb 0.00 in0.0 mm 0.00 in0.0 mm 0.00 in0.0 mm
08:01 AM 30.1°F-1.1°C 32.5°F0.3°C 88% 2.4 mph SE3.9 kmh SE 2.4 mph3.9 kmh 29.19 in988.5 mb 0.00 in0.0 mm 0.00 in0.0 mm 0.00 in0.0 mm
08:04 AM 30.1°F-1.1°C 32.5°F0.3°C 87% 2.4 mph SE3.9 kmh SE 2.4 mph3.9 kmh 29.19 in988.5 mb 0.00 in0.0 mm 0.00 in0.0 mm 0.00 in0.0 mm
08:07 AM 30.1°F-1.1°C 32.4°F0.2°C 87% 2.8 mph SE4.5 kmh SE 2.8 mph4.5 kmh 29.19 in988.5 mb 0.00 in0.0 mm 0.00 in0.0 mm 0.00 in0.0 mm
08:10 AM 30.3°F-0.9°C 32.3°F0.2°C 87% 2.7 mph NNW4.3 kmh NNW 2.9 mph4.7 kmh 29.19 in988.5 mb 0.00 in0.0 mm 0.00 in0.0 mm 0.00 in0.0 mm
08:16 AM 30.1°F-1.1°C 32.4°F0.2°C 87% Calm Calm -- 29.21 in989.2 mb 0.00 in0.0 mm 0.00 in0.0 mm 0.00 in0.0 mm
08:19 AM 30.2°F-1.0°C 32.3°F0.2°C 86% Calm Calm -- 29.21 in989.2 mb 0.00 in0.0 mm 0.00 in0.0 mm 0.00 in0.0 mm
08:22 AM 30.1°F-1.1°C 31.9°F-0.1°C 85% Calm Calm -- 29.20 in988.8 mb 0.00 in0.0 mm 0.00 in0.0 mm 0.00 in0.0 mm
08:25 AM 30.1°F-1.1°C 32.4°F0.2°C 86% Calm Calm -- 29.20 in988.8 mb 0.00 in0.0 mm 0.00 in0.0 mm 0.00 in0.0 mm
08:28 AM 30.1°F-1.1°C 32.3°F0.2°C 86% Calm Calm -- 29.20 in988.8 mb 0.00 in0.0 mm 0.00 in0.0 mm 0.00 in0.0 mm
08:31 AM 30.2°F-1.0°C 32.3°F0.2°C 86% Calm Calm -- 29.20 in988.8 mb 0.00 in0.0 mm 0.00 in0.0 mm 0.00 in0.0 mm
08:34 AM 30.3°F-0.9°C 32.4°F0.2°C 86% 1.6 mph NNW2.6 kmh NNW 1.6 mph2.6 kmh 29.21 in989.2 mb 0.00 in0.0 mm 0.00 in0.0 mm 0.00 in0.0 mm
08:37 AM 30.3°F-0.9°C 32.5°F0.3°C 86% 1.6 mph SSE2.6 kmh SSE 1.6 mph2.6 kmh 29.20 in988.8 mb 0.00 in0.0 mm 0.00 in0.0 mm 0.00 in0.0 mm
08:40 AM 30.4°F-0.9°C 32.3°F0.2°C 86% Calm Calm -- 29.21 in989.2 mb 0.00 in0.0 mm 0.00 in0.0 mm 0.00 in0.0 mm
08:43 AM 30.4°F-0.9°C 32.6°F0.3°C 86% Calm Calm -- 29.21 in989.2 mb 0.00 in0.0 mm 0.00 in0.0 mm 0.00 in0.0 mm
08:46 AM 30.3°F-0.9°C 32.4°F0.2°C 86% Calm Calm -- 29.21 in989.2 mb 0.00 in0.0 mm 0.00 in0.0 mm 0.00 in0.0 mm
08:49 AM 30.4°F-0.9°C 32.4°F0.2°C 85% Calm Calm -- 29.21 in989.2 mb 0.00 in0.0 mm 0.00 in0.0 mm 0.00 in0.0 mm
08:52 AM 30.4°F-0.9°C 32.5°F0.3°C 86% Calm Calm -- 29.21 in989.2 mb 0.00 in0.0 mm 0.00 in0.0 mm 0.00 in0.0 mm
08:55 AM 30.4°F-0.9°C 32.5°F0.3°C 86% Calm Calm -- 29.21 in989.2 mb 0.00 in0.0 mm 0.00 in0.0 mm 0.00 in0.0 mm
08:58 AM 30.5°F-0.8°C 32.7°F0.4°C 86% Calm Calm -- 29.21 in989.2 mb 0.00 in0.0 mm 0.00 in0.0 mm 0.00 in0.0 mm
09:01 AM 30.5°F-0.8°C 32.6°F0.3°C 86% Calm Calm -- 29.21 in989.2 mb 0.00 in0.0 mm 0.00 in0.0 mm 0.00 in0.0 mm
09:04 AM 30.7°F-0.7°C 32.6°F0.3°C 86% Calm Calm -- 29.21 in989.2 mb 0.00 in0.0 mm 0.00 in0.0 mm 0.00 in0.0 mm
09:07 AM 30.7°F-0.7°C 32.7°F0.4°C 86% Calm Calm -- 29.21 in989.2 mb 0.00 in0.0 mm 0.00 in0.0 mm 0.00 in0.0 mm
09:10 AM 30.8°F-0.7°C 32.7°F0.4°C 86% 3.8 mph NNW6.1 kmh NNW 3.8 mph6.1 kmh 29.20 in988.8 mb 0.00 in0.0 mm 0.00 in0.0 mm 0.00 in0.0 mm
09:13 AM 30.9°F-0.6°C 32.7°F0.4°C 86% 4.0 mph SE6.4 kmh SE 4.0 mph6.4 kmh 29.21 in989.2 mb 0.00 in0.0 mm 0.00 in0.0 mm 0.00 in0.0 mm
09:16 AM 31.0°F-0.6°C 32.7°F0.4°C 86% 4.8 mph SE7.7 kmh SE 4.8 mph7.7 kmh 29.20 in988.8 mb 0.00 in0.0 mm 0.00 in0.0 mm 0.00 in0.0 mm
09:19 AM 31.2°F-0.4°C 32.8°F0.4°C 86% 1.5 mph S2.4 kmh S 1.6 mph2.6 kmh 29.20 in988.8 mb 0.00 in0.0 mm 0.00 in0.0 mm 0.00 in0.0 mm
09:22 AM 31.3°F-0.4°C 32.8°F0.4°C 85% 2.4 mph SE3.9 kmh SE 2.4 mph3.9 kmh 29.21 in989.2 mb 0.00 in0.0 mm 0.00 in0.0 mm 0.00 in0.0 mm
09:25 AM 31.4°F-0.3°C 32.9°F0.5°C 85% Calm Calm -- 29.21 in989.2 mb 0.00 in0.0 mm 0.00 in0.0 mm 0.00 in0.0 mm
09:28 AM 31.4°F-0.3°C 33.0°F0.6°C 85% Calm Calm -- 29.21 in989.2 mb 0.00 in0.0 mm 0.00 in0.0 mm 0.00 in0.0 mm
09:31 AM 31.6°F-0.2°C 33.0°F0.6°C 85% Calm Calm -- 29.21 in989.2 mb 0.00 in0.0 mm 0.00 in0.0 mm 0.00 in0.0 mm
09:34 AM 31.6°F-0.2°C 33.1°F0.6°C 85% Calm Calm -- 29.21 in989.2 mb 0.00 in0.0 mm 0.00 in0.0 mm 0.00 in0.0 mm
09:37 AM 31.6°F-0.2°C 33.0°F0.6°C 85% Calm Calm -- 29.21 in989.2 mb 0.00 in0.0 mm 0.00 in0.0 mm 0.00 in0.0 mm
09:40 AM 31.6°F-0.2°C 33.2°F0.7°C 85% Calm Calm -- 29.21 in989.2 mb 0.00 in0.0 mm 0.00 in0.0 mm 0.00 in0.0 mm
09:43 AM 31.7°F-0.2°C 33.2°F0.7°C 85% Calm Calm -- 29.21 in989.2 mb 0.00 in0.0 mm 0.00 in0.0 mm 0.00 in0.0 mm
09:46 AM 31.7°F-0.2°C 33.2°F0.7°C 85% Calm Calm -- 29.22 in989.5 mb 0.00 in0.0 mm 0.00 in0.0 mm 0.00 in0.0 mm
09:49 AM 31.8°F-0.1°C 33.2°F0.7°C 84% Calm Calm -- 29.21 in989.2 mb 0.00 in0.0 mm 0.00 in0.0 mm 0.00 in0.0 mm
09:52 AM 31.9°F-0.1°C 33.4°F0.8°C 85% Calm Calm -- 29.21 in989.2 mb 0.00 in0.0 mm 0.00 in0.0 mm 0.00 in0.0 mm
09:55 AM 32.0°F0.0°C 33.2°F0.7°C 84% Calm Calm -- 29.21 in989.2 mb 0.00 in0.0 mm 0.00 in0.0 mm 0.00 in0.0 mm
09:58 AM 32.2°F0.1°C 33.5°F0.8°C 85% Calm Calm -- 29.22 in989.5 mb 0.00 in0.0 mm 0.00 in0.0 mm 0.00 in0.0 mm
10:01 AM 32.2°F0.1°C 33.4°F0.8°C 85% Calm Calm -- 29.21 in989.2 mb 0.00 in0.0 mm 0.00 in0.0 mm 0.00 in0.0 mm
10:04 AM 32.5°F0.3°C 33.6°F0.9°C 84% Calm Calm -- 29.22 in989.5 mb 0.00 in0.0 mm 0.00 in0.0 mm 0.00 in0.0 mm
10:07 AM 32.5°F0.3°C 33.6°F0.9°C 85% Calm Calm -- 29.22 in989.5 mb 0.00 in0.0 mm 0.00 in0.0 mm 0.00 in0.0 mm
10:10 AM 32.7°F0.4°C 33.9°F1.1°C 85% Calm Calm -- 29.22 in989.5 mb 0.00 in0.0 mm 0.00 in0.0 mm 0.00 in0.0 mm
10:13 AM 32.8°F0.4°C 33.6°F0.9°C 84% 2.8 mph SE4.5 kmh SE 2.9 mph4.7 kmh 29.21 in989.2 mb 0.00 in0.0 mm 0.00 in0.0 mm 0.00 in0.0 mm
10:16 AM 33.1°F0.6°C 34.3°F1.3°C 85% 2.8 mph SE4.5 kmh SE 2.8 mph4.5 kmh 29.21 in989.2 mb 0.00 in0.0 mm 0.00 in0.0 mm 0.00 in0.0 mm
10:19 AM 33.2°F0.7°C 33.9°F1.1°C 84% 3.1 mph SE5.0 kmh SE 3.2 mph5.1 kmh 29.21 in989.2 mb 0.00 in0.0 mm 0.00 in0.0 mm 0.00 in0.0 mm
10:22 AM 33.2°F0.7°C 34.1°F1.2°C 84% 4.0 mph NNW6.4 kmh NNW 4.1 mph6.6 kmh 29.21 in989.2 mb 0.00 in0.0 mm 0.00 in0.0 mm 0.00 in0.0 mm
10:25 AM 33.5°F0.8°C 34.1°F1.2°C 84% 1.9 mph SE3.1 kmh SE 2.0 mph3.2 kmh 29.21 in989.2 mb 0.00 in0.0 mm 0.00 in0.0 mm 0.00 in0.0 mm
10:28 AM 33.5°F0.8°C 34.2°F1.2°C 84% 3.6 mph NNW5.8 kmh NNW 3.7 mph6.0 kmh 29.21 in989.2 mb 0.00 in0.0 mm 0.00 in0.0 mm 0.00 in0.0 mm
10:31 AM 33.2°F0.7°C 34.1°F1.2°C 83% 3.2 mph SE5.1 kmh SE 3.3 mph5.3 kmh 29.21 in989.2 mb 0.00 in0.0 mm 0.00 in0.0 mm 0.00 in0.0 mm
10:34 AM 33.1°F0.6°C 34.3°F1.3°C 84% 4.8 mph SE7.7 kmh SE 4.9 mph7.9 kmh 29.21 in989.2 mb 0.00 in0.0 mm 0.00 in0.0 mm 0.00 in0.0 mm
10:37 AM 33.2°F0.7°C 34.0°F1.1°C 84% 3.6 mph NNW5.8 kmh NNW 3.7 mph6.0 kmh 29.22 in989.5 mb 0.00 in0.0 mm 0.00 in0.0 mm 0.00 in0.0 mm
10:40 AM 33.2°F0.7°C 34.2°F1.2°C 84% 4.6 mph SE7.4 kmh SE 4.6 mph7.4 kmh 29.22 in989.5 mb 0.00 in0.0 mm 0.00 in0.0 mm 0.00 in0.0 mm
10:43 AM 33.2°F0.7°C 34.2°F1.2°C 83% 3.6 mph SE5.8 kmh SE 3.6 mph5.8 kmh 29.22 in989.5 mb 0.00 in0.0 mm 0.00 in0.0 mm 0.00 in0.0 mm
10:46 AM 33.1°F0.6°C 34.5°F1.4°C 84% 2.4 mph SE3.9 kmh SE 2.4 mph3.9 kmh 29.22 in989.5 mb 0.00 in0.0 mm 0.00 in0.0 mm 0.00 in0.0 mm
10:49 AM 33.1°F0.6°C 34.1°F1.2°C 84% 2.8 mph NNW4.5 kmh NNW 2.8 mph4.5 kmh 29.22 in989.5 mb 0.00 in0.0 mm 0.00 in0.0 mm 0.00 in0.0 mm
10:52 AM 32.9°F0.5°C 34.3°F1.3°C 84% Calm Calm -- 29.22 in989.5 mb 0.00 in0.0 mm 0.00 in0.0 mm 0.00 in0.0 mm
10:55 AM 33.0°F0.6°C 34.2°F1.2°C 84% Calm Calm -- 29.22 in989.5 mb 0.00 in0.0 mm 0.00 in0.0 mm 0.00 in0.0 mm
10:58 AM 33.1°F0.6°C 34.4°F1.3°C 83% Calm Calm -- 29.22 in989.5 mb 0.00 in0.0 mm 0.00 in0.0 mm 0.00 in0.0 mm
11:01 AM 33.1°F0.6°C 34.3°F1.3°C 83% Calm Calm -- 29.22 in989.5 mb 0.00 in0.0 mm 0.00 in0.0 mm 0.00 in0.0 mm
11:04 AM 33.1°F0.6°C 34.0°F1.1°C 83% Calm Calm -- 29.22 in989.5 mb 0.00 in0.0 mm 0.00 in0.0 mm 0.00 in0.0 mm
11:07 AM 33.1°F0.6°C 34.2°F1.2°C 84% Calm Calm -- 29.22 in989.5 mb 0.00 in0.0 mm 0.00 in0.0 mm 0.00 in0.0 mm
11:10 AM 33.2°F0.7°C 34.4°F1.3°C 84% 4.9 mph SE7.9 kmh SE 4.9 mph7.9 kmh 29.22 in989.5 mb 0.00 in0.0 mm 0.00 in0.0 mm 0.00 in0.0 mm
11:13 AM 33.5°F0.8°C 34.1°F1.2°C 83% 5.3 mph SE8.5 kmh SE 5.3 mph8.5 kmh 29.22 in989.5 mb 0.00 in0.0 mm 0.00 in0.0 mm 0.00 in0.0 mm
11:16 AM 33.8°F1.0°C 34.1°F1.2°C 83% 4.8 mph SE7.7 kmh SE 4.9 mph7.9 kmh 29.22 in989.5 mb 0.00 in0.0 mm 0.00 in0.0 mm 0.00 in0.0 mm
11:19 AM 34.0°F1.1°C 34.2°F1.2°C 83% 5.6 mph ESE9.0 kmh ESE 5.7 mph9.2 kmh 29.22 in989.5 mb 0.00 in0.0 mm 0.00 in0.0 mm 0.00 in0.0 mm
11:22 AM 34.0°F1.1°C 34.2°F1.2°C 83% 4.4 mph SE7.1 kmh SE 4.5 mph7.2 kmh 29.22 in989.5 mb 0.00 in0.0 mm 0.00 in0.0 mm 0.00 in0.0 mm
11:25 AM 33.7°F0.9°C 34.2°F1.2°C 83% 5.4 mph SE8.7 kmh SE 5.4 mph8.7 kmh 29.22 in989.5 mb 0.00 in0.0 mm 0.00 in0.0 mm 0.00 in0.0 mm
11:28 AM 33.8°F1.0°C 34.2°F1.2°C 82% 3.6 mph SE5.8 kmh SE 3.6 mph5.8 kmh 29.22 in989.5 mb 0.00 in0.0 mm 0.00 in0.0 mm 0.00 in0.0 mm
11:31 AM 33.7°F0.9°C 33.9°F1.1°C 82% 4.8 mph NNW7.7 kmh NNW 4.9 mph7.9 kmh 29.22 in989.5 mb 0.00 in0.0 mm 0.00 in0.0 mm 0.00 in0.0 mm
11:34 AM 33.7°F0.9°C 34.3°F1.3°C 82% 4.8 mph NNW7.7 kmh NNW 4.9 mph7.9 kmh 29.22 in989.5 mb 0.00 in0.0 mm 0.00 in0.0 mm 0.00 in0.0 mm
11:37 AM 33.8°F1.0°C 34.2°F1.2°C 82% 4.6 mph SE7.4 kmh SE 4.6 mph7.4 kmh 29.22 in989.5 mb 0.00 in0.0 mm 0.00 in0.0 mm 0.00 in0.0 mm
11:40 AM 33.9°F1.1°C 34.1°F1.2°C 82% 4.4 mph SE7.1 kmh SE 4.4 mph7.1 kmh 29.22 in989.5 mb 0.00 in0.0 mm 0.00 in0.0 mm 0.00 in0.0 mm
11:43 AM 34.1°F1.2°C 34.2°F1.2°C 82% 3.6 mph SE5.8 kmh SE 3.7 mph6.0 kmh 29.22 in989.5 mb 0.00 in0.0 mm 0.00 in0.0 mm 0.00 in0.0 mm
11:46 AM 34.1°F1.2°C 34.5°F1.4°C 82% 2.7 mph NNW4.3 kmh NNW 2.8 mph4.5 kmh 29.22 in989.5 mb 0.00 in0.0 mm 0.00 in0.0 mm 0.00 in0.0 mm
11:49 AM 34.3°F1.3°C 34.2°F1.2°C 81% 4.0 mph SE6.4 kmh SE 4.1 mph6.6 kmh 29.22 in989.5 mb 0.00 in0.0 mm 0.00 in0.0 mm 0.00 in0.0 mm
11:52 AM 34.1°F1.2°C 34.6°F1.4°C 82% 1.2 mph NNW1.9 kmh NNW 1.2 mph1.9 kmh 29.22 in989.5 mb 0.00 in0.0 mm 0.00 in0.0 mm 0.00 in0.0 mm
11:55 AM 34.1°F1.2°C 34.8°F1.6°C 81% 3.5 mph NNW5.6 kmh NNW 3.5 mph5.6 kmh 29.22 in989.5 mb 0.00 in0.0 mm 0.00 in0.0 mm 0.00 in0.0 mm
11:58 AM 34.1°F1.2°C 34.5°F1.4°C 81% 2.4 mph SE3.9 kmh SE 2.4 mph3.9 kmh 29.22 in989.5 mb 0.00 in0.0 mm 0.00 in0.0 mm 0.00 in0.0 mm
12:01 PM 34.0°F1.1°C 34.8°F1.6°C 82% 3.2 mph SE5.1 kmh SE 3.2 mph5.1 kmh 29.22 in989.5 mb 0.00 in0.0 mm 0.00 in0.0 mm 0.00 in0.0 mm
12:04 PM 33.9°F1.1°C 34.6°F1.4°C 81% 4.0 mph SE6.4 kmh SE 4.0 mph6.4 kmh 29.22 in989.5 mb 0.00 in0.0 mm 0.00 in0.0 mm 0.00 in0.0 mm
12:07 PM 34.0°F1.1°C 33.9°F1.1°C 80% 4.0 mph SE6.4 kmh SE 4.1 mph6.6 kmh 29.22 in989.5 mb 0.00 in0.0 mm 0.00 in0.0 mm 0.00 in0.0 mm
12:10 PM 34.3°F1.3°C 34.1°F1.2°C 80% 2.8 mph SSE4.5 kmh SSE 2.8 mph4.5 kmh 29.22 in989.5 mb 0.00 in0.0 mm 0.00 in0.0 mm 0.00 in0.0 mm
12:13 PM 34.5°F1.4°C 34.2°F1.2°C 81% 4.0 mph SE6.4 kmh SE 4.1 mph6.6 kmh 29.23 in989.8 mb 0.00 in0.0 mm 0.00 in0.0 mm 0.00 in0.0 mm
12:16 PM 34.6°F1.4°C 34.6°F1.4°C 81% 3.6 mph SE5.8 kmh SE 3.7 mph6.0 kmh 29.22 in989.5 mb 0.00 in0.0 mm 0.00 in0.0 mm 0.00 in0.0 mm
12:19 PM 34.7°F1.5°C 34.3°F1.3°C 80% 5.2 mph SE8.4 kmh SE 5.3 mph8.5 kmh 29.22 in989.5 mb 0.00 in0.0 mm 0.00 in0.0 mm 0.00 in0.0 mm
12:22 PM 34.7°F1.5°C 34.3°F1.3°C 80% 5.6 mph SE9.0 kmh SE 5.6 mph9.0 kmh 29.22 in989.5 mb 0.00 in0.0 mm 0.00 in0.0 mm 0.00 in0.0 mm
12:25 PM 34.9°F1.6°C 34.5°F1.4°C 80% 4.4 mph NNW7.1 kmh NNW 4.4 mph7.1 kmh 29.22 in989.5 mb 0.00 in0.0 mm 0.00 in0.0 mm 0.00 in0.0 mm
12:28 PM 34.8°F1.6°C 34.4°F1.3°C 80% 4.4 mph NNW7.1 kmh NNW 4.5 mph7.2 kmh 29.22 in989.5 mb 0.00 in0.0 mm 0.00 in0.0 mm 0.00 in0.0 mm
12:31 PM 35.3°F1.8°C 34.7°F1.5°C 80% 2.4 mph SSE3.9 kmh SSE 2.4 mph3.9 kmh 29.22 in989.5 mb 0.00 in0.0 mm 0.00 in0.0 mm 0.00 in0.0 mm
12:34 PM 35.6°F2.0°C 34.3°F1.3°C 79% 2.8 mph SE4.5 kmh SE 2.8 mph4.5 kmh 29.22 in989.5 mb 0.00 in0.0 mm 0.00 in0.0 mm 0.00 in0.0 mm
12:37 PM 35.5°F1.9°C 34.9°F1.6°C 79% 3.2 mph SE5.1 kmh SE 3.3 mph5.3 kmh 29.22 in989.5 mb 0.00 in0.0 mm 0.00 in0.0 mm 0.00 in0.0 mm
12:40 PM 35.6°F2.0°C 34.4°F1.3°C 78% 6.6 mph SE10.6 kmh SE 6.6 mph10.6 kmh 29.22 in989.5 mb 0.00 in0.0 mm 0.00 in0.0 mm 0.00 in0.0 mm
12:43 PM 35.5°F1.9°C 34.4°F1.3°C 77% 4.0 mph SE6.4 kmh SE 4.1 mph6.6 kmh 29.22 in989.5 mb 0.00 in0.0 mm 0.00 in0.0 mm 0.00 in0.0 mm
12:46 PM 35.6°F2.0°C 34.9°F1.6°C 78% 4.4 mph SE7.1 kmh SE 4.5 mph7.2 kmh 29.21 in989.2 mb 0.00 in0.0 mm 0.00 in0.0 mm 0.00 in0.0 mm
12:49 PM 36.1°F2.3°C 34.4°F1.3°C 77% 4.1 mph SE6.6 kmh SE 4.1 mph6.6 kmh 29.21 in989.2 mb 0.00 in0.0 mm 0.00 in0.0 mm 0.00 in0.0 mm
12:52 PM 35.5°F1.9°C 34.2°F1.2°C 76% 6.1 mph SE9.8 kmh SE 6.1 mph9.8 kmh 29.21 in989.2 mb 0.00 in0.0 mm 0.00 in0.0 mm 0.00 in0.0 mm
12:55 PM 35.4°F1.9°C 34.5°F1.4°C 77% 2.8 mph SE4.5 kmh SE 2.9 mph4.7 kmh 29.21 in989.2 mb 0.00 in0.0 mm 0.00 in0.0 mm 0.00 in0.0 mm
12:58 PM 35.4°F1.9°C 34.4°F1.3°C 76% 4.4 mph SSE7.1 kmh SSE 4.5 mph7.2 kmh 29.21 in989.2 mb 0.00 in0.0 mm 0.00 in0.0 mm 0.00 in0.0 mm
01:01 PM 35.4°F1.9°C 33.7°F0.9°C 75% 3.6 mph SSE5.8 kmh SSE 3.6 mph5.8 kmh 29.21 in989.2 mb 0.00 in0.0 mm 0.00 in0.0 mm 0.00 in0.0 mm
01:04 PM 35.6°F2.0°C 34.1°F1.2°C 76% 4.0 mph SE6.4 kmh SE 4.0 mph6.4 kmh 29.21 in989.2 mb 0.00 in0.0 mm 0.00 in0.0 mm 0.00 in0.0 mm
01:07 PM 35.6°F2.0°C 34.4°F1.3°C 76% 4.0 mph SE6.4 kmh SE 4.1 mph6.6 kmh 29.21 in989.2 mb 0.00 in0.0 mm 0.00 in0.0 mm 0.00 in0.0 mm
01:10 PM 35.7°F2.1°C 34.4°F1.3°C 76% 4.7 mph NNW7.6 kmh NNW 4.7 mph7.6 kmh 29.21 in989.2 mb 0.00 in0.0 mm 0.00 in0.0 mm 0.00 in0.0 mm
01:13 PM 35.9°F2.2°C 34.3°F1.3°C 76% 3.6 mph SE5.8 kmh SE 3.7 mph6.0 kmh 29.21 in989.2 mb 0.00 in0.0 mm 0.00 in0.0 mm 0.00 in0.0 mm
01:16 PM 35.7°F2.1°C 34.5°F1.4°C 76% 5.3 mph SE8.5 kmh SE 5.3 mph8.5 kmh 29.21 in989.2 mb 0.00 in0.0 mm 0.00 in0.0 mm 0.00 in0.0 mm
01:19 PM 35.7°F2.1°C 34.4°F1.3°C 76% 4.0 mph SE6.4 kmh SE 4.0 mph6.4 kmh 29.21 in989.2 mb 0.00 in0.0 mm 0.00 in0.0 mm 0.00 in0.0 mm
01:22 PM 35.9°F2.2°C 34.5°F1.4°C 77% 3.6 mph SE5.8 kmh SE 3.7 mph6.0 kmh 29.21 in989.2 mb 0.00 in0.0 mm 0.00 in0.0 mm 0.00 in0.0 mm
01:25 PM 35.9°F2.2°C 34.6°F1.4°C 77% 1.9 mph NNW3.1 kmh NNW 2.0 mph3.2 kmh 29.21 in989.2 mb 0.00 in0.0 mm 0.00 in0.0 mm 0.00 in0.0 mm
01:28 PM 36.4°F2.4°C 34.4°F1.3°C 75% 2.8 mph SE4.5 kmh SE 2.8 mph4.5 kmh 29.21 in989.2 mb 0.00 in0.0 mm 0.00 in0.0 mm 0.00 in0.0 mm
01:31 PM 36.5°F2.5°C 34.7°F1.5°C 75% 2.8 mph SSE4.5 kmh SSE 2.9 mph4.7 kmh 29.21 in989.2 mb 0.00 in0.0 mm 0.00 in0.0 mm 0.00 in0.0 mm
01:34 PM 36.5°F2.5°C 34.3°F1.3°C 74% 3.5 mph SE5.6 kmh SE 3.7 mph6.0 kmh 29.21 in989.2 mb 0.00 in0.0 mm 0.00 in0.0 mm 0.00 in0.0 mm
01:37 PM 36.6°F2.6°C 34.6°F1.4°C 75% 2.8 mph SSE4.5 kmh SSE 2.8 mph4.5 kmh 29.21 in989.2 mb 0.00 in0.0 mm 0.00 in0.0 mm 0.02 in0.5 mm
01:40 PM 36.5°F2.5°C 34.5°F1.4°C 74% 3.8 mph NNW6.1 kmh NNW 3.9 mph6.3 kmh 29.21 in989.2 mb 0.00 in0.0 mm 0.00 in0.0 mm 0.02 in0.5 mm
01:43 PM 36.6°F2.6°C 34.6°F1.4°C 74% 3.6 mph SE5.8 kmh SE 3.7 mph6.0 kmh 29.21 in989.2 mb 0.00 in0.0 mm 0.00 in0.0 mm 0.02 in0.5 mm
01:46 PM 36.8°F2.7°C 34.2°F1.2°C 74% 1.6 mph SSE2.6 kmh SSE 1.6 mph2.6 kmh 29.20 in988.8 mb 0.00 in0.0 mm 0.00 in0.0 mm 0.02 in0.5 mm
01:49 PM 37.1°F2.8°C 34.4°F1.3°C 73% Calm Calm -- 29.20 in988.8 mb 0.00 in0.0 mm 0.00 in0.0 mm 0.02 in0.5 mm
01:52 PM 37.2°F2.9°C 34.6°F1.4°C 74% Calm Calm -- 29.20 in988.8 mb 0.00 in0.0 mm 0.00 in0.0 mm 0.02 in0.5 mm
01:55 PM 37.0°F2.8°C 35.0°F1.7°C 74% Calm Calm -- 29.20 in988.8 mb 0.00 in0.0 mm 0.00 in0.0 mm 0.02 in0.5 mm
01:58 PM 37.3°F2.9°C 34.8°F1.6°C 74% 2.8 mph SSE4.5 kmh SSE 2.9 mph4.7 kmh 29.19 in988.5 mb 0.00 in0.0 mm 0.00 in0.0 mm 0.02 in0.5 mm
02:01 PM 37.2°F2.9°C 34.8°F1.6°C 73% 3.2 mph SE5.1 kmh SE 3.2 mph5.1 kmh 29.20 in988.8 mb 0.00 in0.0 mm 0.00 in0.0 mm 0.02 in0.5 mm
02:04 PM 37.3°F2.9°C 34.7°F1.5°C 73% 2.3 mph NNW3.7 kmh NNW 2.3 mph3.7 kmh 29.19 in988.5 mb 0.00 in0.0 mm 0.00 in0.0 mm 0.02 in0.5 mm
02:07 PM 36.7°F2.6°C 35.2°F1.8°C 74% 2.8 mph SE4.5 kmh SE 2.8 mph4.5 kmh 29.19 in988.5 mb 0.00 in0.0 mm 0.00 in0.0 mm 0.02 in0.5 mm
02:10 PM 36.8°F2.7°C 35.3°F1.8°C 75% 4.8 mph SE7.7 kmh SE 4.8 mph7.7 kmh 29.19 in988.5 mb 0.00 in0.0 mm 0.00 in0.0 mm 0.02 in0.5 mm
02:13 PM 36.5°F2.5°C 35.0°F1.7°C 75% 5.6 mph SE9.0 kmh SE 5.6 mph9.0 kmh 29.19 in988.5 mb 0.00 in0.0 mm 0.00 in0.0 mm 0.02 in0.5 mm
02:16 PM 36.7°F2.6°C 34.9°F1.6°C 75% 5.6 mph SE9.0 kmh SE 5.7 mph9.2 kmh 29.19 in988.5 mb 0.00 in0.0 mm 0.00 in0.0 mm 0.02 in0.5 mm
02:19 PM 36.6°F2.6°C 35.1°F1.7°C 75% 5.7 mph SE9.2 kmh SE 5.7 mph9.2 kmh 29.18 in988.1 mb 0.00 in0.0 mm 0.00 in0.0 mm 0.02 in0.5 mm
02:22 PM 36.4°F2.4°C 35.4°F1.9°C 76% 4.8 mph SE7.7 kmh SE 4.8 mph7.7 kmh 29.18 in988.1 mb 0.00 in0.0 mm 0.00 in0.0 mm 0.02 in0.5 mm
02:25 PM 36.5°F2.5°C 34.7°F1.5°C 74% 6.5 mph SE10.5 kmh SE 6.5 mph10.5 kmh 29.18 in988.1 mb 0.00 in0.0 mm 0.00 in0.0 mm 0.02 in0.5 mm
02:28 PM 35.8°F2.1°C 34.9°F1.6°C 76% 4.8 mph SSE7.7 kmh SSE 4.8 mph7.7 kmh 29.18 in988.1 mb 0.00 in0.0 mm 0.00 in0.0 mm 0.02 in0.5 mm
02:31 PM 35.7°F2.1°C 35.0°F1.7°C 76% 6.9 mph SE11.1 kmh SE 7.0 mph11.3 kmh 29.17 in987.8 mb 0.00 in0.0 mm 0.00 in0.0 mm 0.02 in0.5 mm
02:34 PM 36.2°F2.3°C 34.9°F1.6°C 76% 4.8 mph SE7.7 kmh SE 4.9 mph7.9 kmh 29.18 in988.1 mb 0.00 in0.0 mm 0.00 in0.0 mm 0.02 in0.5 mm
02:37 PM 36.8°F2.7°C 34.7°F1.5°C 75% 3.6 mph NNW5.8 kmh NNW 3.7 mph6.0 kmh 29.16 in987.5 mb 0.00 in0.0 mm 0.00 in0.0 mm 0.02 in0.5 mm
02:40 PM 37.2°F2.9°C 35.2°F1.8°C 75% 2.3 mph SSE3.7 kmh SSE 2.3 mph3.7 kmh 29.16 in987.5 mb 0.00 in0.0 mm 0.00 in0.0 mm 0.02 in0.5 mm
02:43 PM 37.2°F2.9°C 35.0°F1.7°C 74% Calm Calm -- 29.18 in988.1 mb 0.00 in0.0 mm 0.00 in0.0 mm 0.02 in0.5 mm
02:46 PM 36.8°F2.7°C 35.1°F1.7°C 73% 1.2 mph NNW1.9 kmh NNW 1.2 mph1.9 kmh 29.18 in988.1 mb 0.00 in0.0 mm 0.00 in0.0 mm 0.02 in0.5 mm
02:49 PM 37.0°F2.8°C 34.9°F1.6°C 73% 1.2 mph NNW1.9 kmh NNW 1.2 mph1.9 kmh 29.18 in988.1 mb 0.00 in0.0 mm 0.00 in0.0 mm 0.02 in0.5 mm
02:52 PM 37.1°F2.8°C 34.7°F1.5°C 73% 3.2 mph ESE5.1 kmh ESE 3.3 mph5.3 kmh 29.18 in988.1 mb 0.00 in0.0 mm 0.00 in0.0 mm 0.02 in0.5 mm
02:55 PM 37.0°F2.8°C 34.9°F1.6°C 73% 2.8 mph S4.5 kmh S 2.8 mph4.5 kmh 29.18 in988.1 mb 0.00 in0.0 mm 0.00 in0.0 mm 0.02 in0.5 mm
02:58 PM 36.6°F2.6°C 35.2°F1.8°C 75% 3.1 mph SE5.0 kmh SE 3.1 mph5.0 kmh 29.18 in988.1 mb 0.00 in0.0 mm 0.00 in0.0 mm 0.02 in0.5 mm
03:01 PM 36.8°F2.7°C 34.6°F1.4°C 74% 4.2 mph SSE6.8 kmh SSE 4.2 mph6.8 kmh 29.18 in988.1 mb 0.00 in0.0 mm 0.00 in0.0 mm 0.02 in0.5 mm
03:04 PM 36.7°F2.6°C 35.0°F1.7°C 75% 4.4 mph SSE7.1 kmh SSE 4.5 mph7.2 kmh 29.18 in988.1 mb 0.00 in0.0 mm 0.00 in0.0 mm 0.02 in0.5 mm
03:07 PM 36.6°F2.6°C 35.4°F1.9°C 76% 3.8 mph SE6.1 kmh SE 4.1 mph6.6 kmh 29.18 in988.1 mb 0.00 in0.0 mm 0.00 in0.0 mm 0.02 in0.5 mm
03:10 PM 36.4°F2.4°C 35.7°F2.1°C 76% 4.0 mph SE6.4 kmh SE 4.0 mph6.4 kmh 29.18 in988.1 mb 0.00 in0.0 mm 0.00 in0.0 mm 0.02 in0.5 mm
03:13 PM 36.6°F2.6°C 35.4°F1.9°C 76% 4.0 mph SE6.4 kmh SE 4.0 mph6.4 kmh 29.18 in988.1 mb 0.00 in0.0 mm 0.00 in0.0 mm 0.02 in0.5 mm
03:16 PM 36.4°F2.4°C 35.5°F1.9°C 76% Calm Calm -- 29.18 in988.1 mb 0.00 in0.0 mm 0.00 in0.0 mm 0.02 in0.5 mm
03:19 PM 36.8°F2.7°C 35.9°F2.2°C 76% Calm Calm -- 29.17 in987.8 mb 0.00 in0.0 mm 0.00 in0.0 mm 0.02 in0.5 mm
03:22 PM 37.2°F2.9°C 35.9°F2.2°C 76% Calm Calm -- 29.17 in987.8 mb 0.00 in0.0 mm 0.00 in0.0 mm 0.02 in0.5 mm
03:25 PM 37.3°F2.9°C 36.0°F2.2°C 76% Calm Calm -- 29.18 in988.1 mb 0.00 in0.0 mm 0.00 in0.0 mm 0.02 in0.5 mm
03:28 PM 37.4°F3.0°C 36.0°F2.2°C 76% Calm Calm -- 29.17 in987.8 mb 0.00 in0.0 mm 0.00 in0.0 mm 0.02 in0.5 mm
03:31 PM 37.5°F3.1°C 36.0°F2.2°C 76% Calm Calm -- 29.17 in987.8 mb 0.00 in0.0 mm 0.00 in0.0 mm 0.02 in0.5 mm
03:34 PM 37.4°F3.0°C 36.1°F2.3°C 76% 1.2 mph ESE1.9 kmh ESE 1.2 mph1.9 kmh 29.16 in987.5 mb 0.00 in0.0 mm 0.00 in0.0 mm 0.02 in0.5 mm
03:37 PM 37.7°F3.2°C 36.1°F2.3°C 76% Calm Calm -- 29.16 in987.5 mb 0.00 in0.0 mm 0.00 in0.0 mm 0.02 in0.5 mm
03:40 PM 37.5°F3.1°C 36.2°F2.3°C 76% Calm Calm -- 29.16 in987.5 mb 0.00 in0.0 mm 0.00 in0.0 mm 0.02 in0.5 mm
03:43 PM 37.1°F2.8°C 36.1°F2.3°C 76% 3.2 mph NNE5.1 kmh NNE 3.3 mph5.3 kmh 29.16 in987.5 mb 0.00 in0.0 mm 0.00 in0.0 mm 0.02 in0.5 mm
03:46 PM 37.1°F2.8°C 36.3°F2.4°C 76% 1.5 mph 2.4 kmh 1.6 mph2.6 kmh 29.16 in987.5 mb 0.00 in0.0 mm 0.00 in0.0 mm 0.02 in0.5 mm
03:49 PM 37.2°F2.9°C 36.2°F2.3°C 76% 2.0 mph 3.2 kmh 2.0 mph3.2 kmh 29.16 in987.5 mb 0.00 in0.0 mm 0.00 in0.0 mm 0.02 in0.5 mm
03:52 PM 37.2°F2.9°C 36.3°F2.4°C 76% 0.8 mph NNE1.3 kmh NNE 0.8 mph1.3 kmh 29.16 in987.5 mb 0.00 in0.0 mm 0.00 in0.0 mm 0.02 in0.5 mm
03:55 PM 37.3°F2.9°C 36.1°F2.3°C 76% 2.0 mph NNW3.2 kmh NNW 2.0 mph3.2 kmh 29.15 in987.1 mb 0.00 in0.0 mm 0.00 in0.0 mm 0.02 in0.5 mm
03:58 PM 37.1°F2.8°C 36.4°F2.4°C 77% 2.8 mph 4.5 kmh 2.9 mph4.7 kmh 29.15 in987.1 mb 0.00 in0.0 mm 0.00 in0.0 mm 0.02 in0.5 mm
04:01 PM 37.2°F2.9°C 36.4°F2.4°C 77% 3.2 mph NNE5.1 kmh NNE 3.3 mph5.3 kmh 29.15 in987.1 mb 0.00 in0.0 mm 0.00 in0.0 mm 0.02 in0.5 mm
04:04 PM 37.3°F2.9°C 36.3°F2.4°C 77% 4.0 mph NNE6.4 kmh NNE 4.1 mph6.6 kmh 29.15 in987.1 mb 0.00 in0.0 mm 0.00 in0.0 mm 0.02 in0.5 mm
04:07 PM 37.2°F2.9°C 36.7°F2.6°C 78% 3.6 mph NNE5.8 kmh NNE 3.7 mph6.0 kmh 29.15 in987.1 mb 0.00 in0.0 mm 0.00 in0.0 mm 0.02 in0.5 mm
04:10 PM 37.4°F3.0°C 36.8°F2.7°C 78% 4.0 mph NE6.4 kmh NE 4.0 mph6.4 kmh 29.15 in987.1 mb 0.00 in0.0 mm 0.00 in0.0 mm 0.02 in0.5 mm
04:13 PM 37.2°F2.9°C 36.8°F2.7°C 78% 4.4 mph NE7.1 kmh NE 4.4 mph7.1 kmh 29.14 in986.8 mb 0.00 in0.0 mm 0.00 in0.0 mm 0.02 in0.5 mm
04:16 PM 37.1°F2.8°C 36.9°F2.7°C 78% 3.6 mph 5.8 kmh 3.7 mph6.0 kmh 29.14 in986.8 mb 0.00 in0.0 mm 0.00 in0.0 mm 0.02 in0.5 mm
04:19 PM 37.2°F2.9°C 36.8°F2.7°C 78% 2.3 mph NNE3.7 kmh NNE 2.3 mph3.7 kmh 29.14 in986.8 mb 0.00 in0.0 mm 0.00 in0.0 mm 0.02 in0.5 mm
04:22 PM 37.3°F2.9°C 37.0°F2.8°C 78% 2.8 mph NNE4.5 kmh NNE 2.8 mph4.5 kmh 29.14 in986.8 mb 0.00 in0.0 mm 0.00 in0.0 mm 0.02 in0.5 mm
04:25 PM 37.0°F2.8°C 36.8°F2.7°C 78% Calm Calm -- 29.14 in986.8 mb 0.00 in0.0 mm 0.00 in0.0 mm 0.02 in0.5 mm
04:28 PM 36.7°F2.6°C 36.6°F2.6°C 78% Calm Calm -- 29.13 in986.5 mb 0.00 in0.0 mm 0.00 in0.0 mm 0.02 in0.5 mm
04:31 PM 36.6°F2.6°C 36.7°F2.6°C 78% 2.8 mph SW4.5 kmh SW 2.8 mph4.5 kmh 29.14 in986.8 mb 0.00 in0.0 mm 0.00 in0.0 mm 0.02 in0.5 mm
04:34 PM 36.6°F2.6°C 36.5°F2.5°C 77% 2.3 mph NNW3.7 kmh NNW 2.4 mph3.9 kmh 29.15 in987.1 mb 0.00 in0.0 mm 0.00 in0.0 mm 0.02 in0.5 mm
04:37 PM 36.5°F2.5°C 36.5°F2.5°C 78% 1.2 mph SW1.9 kmh SW 1.2 mph1.9 kmh 29.14 in986.8 mb 0.00 in0.0 mm 0.00 in0.0 mm 0.02 in0.5 mm
04:40 PM 36.4°F2.4°C 36.5°F2.5°C 78% Calm Calm -- 29.14 in986.8 mb 0.00 in0.0 mm 0.00 in0.0 mm 0.02 in0.5 mm
04:43 PM 36.4°F2.4°C 36.5°F2.5°C 78% Calm Calm -- 29.14 in986.8 mb 0.00 in0.0 mm 0.00 in0.0 mm 0.02 in0.5 mm
04:46 PM 36.5°F2.5°C 36.1°F2.3°C 77% Calm Calm -- 29.13 in986.5 mb 0.00 in0.0 mm 0.00 in0.0 mm 0.02 in0.5 mm
04:49 PM 36.4°F2.4°C 36.4°F2.4°C 78% Calm Calm -- 29.14 in986.8 mb 0.00 in0.0 mm 0.00 in0.0 mm 0.02 in0.5 mm
04:52 PM 36.2°F2.3°C 36.5°F2.5°C 78% Calm Calm -- 29.13 in986.5 mb 0.00 in0.0 mm 0.00 in0.0 mm 0.02 in0.5 mm
04:55 PM 35.7°F2.1°C 36.3°F2.4°C 78% Calm Calm -- 29.13 in986.5 mb 0.00 in0.0 mm 0.00 in0.0 mm 0.02 in0.5 mm
04:58 PM 35.5°F1.9°C 36.4°F2.4°C 78% Calm Calm -- 29.13 in986.5 mb 0.00 in0.0 mm 0.00 in0.0 mm 0.02 in0.5 mm
05:01 PM 35.3°F1.8°C 36.3°F2.4°C 78% Calm Calm -- 29.13 in986.5 mb 0.00 in0.0 mm 0.00 in0.0 mm 0.02 in0.5 mm
05:04 PM 35.3°F1.8°C 36.5°F2.5°C 79% Calm Calm -- 29.13 in986.5 mb 0.00 in0.0 mm 0.00 in0.0 mm 0.02 in0.5 mm
05:07 PM 35.3°F1.8°C 36.2°F2.3°C 79% Calm Calm -- 29.14 in986.8 mb 0.00 in0.0 mm 0.00 in0.0 mm 0.02 in0.5 mm
05:10 PM 34.9°F1.6°C 36.4°F2.4°C 79% Calm Calm -- 29.13 in986.5 mb 0.00 in0.0 mm 0.00 in0.0 mm 0.02 in0.5 mm
05:13 PM 34.9°F1.6°C 36.3°F2.4°C 79% Calm Calm -- 29.13 in986.5 mb 0.00 in0.0 mm 0.00 in0.0 mm 0.02 in0.5 mm
05:16 PM 35.0°F1.7°C 36.3°F2.4°C 79% Calm Calm -- 29.13 in986.5 mb 0.00 in0.0 mm 0.00 in0.0 mm 0.02 in0.5 mm
05:19 PM 35.0°F1.7°C 36.0°F2.2°C 79% Calm Calm -- 29.13 in986.5 mb 0.00 in0.0 mm 0.00 in0.0 mm 0.02 in0.5 mm
05:22 PM 34.4°F1.3°C 36.1°F2.3°C 79% Calm Calm -- 29.13 in986.5 mb 0.00 in0.0 mm 0.00 in0.0 mm 0.02 in0.5 mm
05:25 PM 34.4°F1.3°C 36.3°F2.4°C 80% Calm Calm -- 29.13 in986.5 mb 0.00 in0.0 mm 0.00 in0.0 mm 0.02 in0.5 mm
05:28 PM 34.4°F1.3°C 36.2°F2.3°C 80% Calm Calm -- 29.13 in986.5 mb 0.00 in0.0 mm 0.00 in0.0 mm 0.02 in0.5 mm
05:31 PM 34.5°F1.4°C 36.2°F2.3°C 80% Calm Calm -- 29.13 in986.5 mb 0.00 in0.0 mm 0.00 in0.0 mm 0.02 in0.5 mm
05:34 PM 34.0°F1.1°C 36.1°F2.3°C 80% Calm Calm -- 29.13 in986.5 mb 0.00 in0.0 mm 0.00 in0.0 mm 0.02 in0.5 mm
05:37 PM 34.0°F1.1°C 35.8°F2.1°C 80% Calm Calm -- 29.12 in986.1 mb 0.00 in0.0 mm 0.00 in0.0 mm 0.02 in0.5 mm
05:40 PM 33.5°F0.8°C 36.2°F2.3°C 81% Calm Calm -- 29.12 in986.1 mb 0.00 in0.0 mm 0.00 in0.0 mm 0.02 in0.5 mm
05:43 PM 33.6°F0.9°C 36.0°F2.2°C 81% Calm Calm -- 29.12 in986.1 mb 0.00 in0.0 mm 0.00 in0.0 mm 0.02 in0.5 mm
05:46 PM 33.7°F0.9°C 35.9°F2.2°C 81% Calm Calm -- 29.12 in986.1 mb 0.00 in0.0 mm 0.00 in0.0 mm 0.02 in0.5 mm
05:49 PM 33.7°F0.9°C 36.3°F2.4°C 81% Calm Calm -- 29.12 in986.1 mb 0.00 in0.0 mm 0.00 in0.0 mm 0.02 in0.5 mm
05:52 PM 33.5°F0.8°C 36.0°F2.2°C 81% Calm Calm -- 29.11 in985.8 mb 0.00 in0.0 mm 0.00 in0.0 mm 0.02 in0.5 mm
05:55 PM 33.7°F0.9°C 36.1°F2.3°C 81% Calm Calm -- 29.10 in985.4 mb 0.00 in0.0 mm 0.00 in0.0 mm 0.02 in0.5 mm
05:58 PM 33.8°F1.0°C 35.9°F2.2°C 81% Calm Calm -- 29.10 in985.4 mb 0.00 in0.0 mm 0.00 in0.0 mm 0.02 in0.5 mm
06:01 PM 33.5°F0.8°C 36.0°F2.2°C 81% Calm Calm -- 29.11 in985.8 mb 0.00 in0.0 mm 0.00 in0.0 mm 0.02 in0.5 mm
06:04 PM 33.6°F0.9°C 36.2°F2.3°C 82% Calm Calm -- 29.10 in985.4 mb 0.00 in0.0 mm 0.00 in0.0 mm 0.02 in0.5 mm
06:07 PM 33.6°F0.9°C 36.0°F2.2°C 82% Calm Calm -- 29.11 in985.8 mb 0.00 in0.0 mm 0.00 in0.0 mm 0.02 in0.5 mm
06:10 PM 33.6°F0.9°C 36.0°F2.2°C 82% Calm Calm -- 29.10 in985.4 mb 0.00 in0.0 mm 0.00 in0.0 mm 0.02 in0.5 mm
06:13 PM 33.7°F0.9°C 35.9°F2.2°C 81% Calm Calm -- 29.10 in985.4 mb 0.00 in0.0 mm 0.00 in0.0 mm 0.02 in0.5 mm
06:16 PM 33.7°F0.9°C 36.1°F2.3°C 82% Calm Calm -- 29.10 in985.4 mb 0.00 in0.0 mm 0.00 in0.0 mm 0.02 in0.5 mm
06:19 PM 33.7°F0.9°C 36.2°F2.3°C 82% Calm Calm -- 29.10 in985.4 mb 0.00 in0.0 mm 0.00 in0.0 mm 0.02 in0.5 mm
06:22 PM 34.4°F1.3°C 36.3°F2.4°C 83% 0.4 mph ESE0.6 kmh ESE 0.4 mph0.6 kmh 29.10 in985.4 mb 0.00 in0.0 mm 0.00 in0.0 mm 0.02 in0.5 mm
06:25 PM 35.0°F1.7°C 36.8°F2.7°C 84% 2.4 mph NNW3.9 kmh NNW 2.4 mph3.9 kmh 29.10 in985.4 mb 0.00 in0.0 mm 0.00 in0.0 mm 0.02 in0.5 mm
06:28 PM 35.0°F1.7°C 37.1°F2.8°C 84% 2.4 mph SE3.9 kmh SE 2.4 mph3.9 kmh 29.10 in985.4 mb 0.00 in0.0 mm 0.00 in0.0 mm 0.02 in0.5 mm
06:31 PM 36.1°F2.3°C 37.0°F2.8°C 84% 2.8 mph S4.5 kmh S 2.9 mph4.7 kmh 29.10 in985.4 mb 0.00 in0.0 mm 0.00 in0.0 mm 0.02 in0.5 mm
06:34 PM 36.5°F2.5°C 37.1°F2.8°C 83% 3.4 mph NNW5.5 kmh NNW 3.7 mph6.0 kmh 29.10 in985.4 mb 0.00 in0.0 mm 0.00 in0.0 mm 0.02 in0.5 mm
06:37 PM 36.3°F2.4°C 36.9°F2.7°C 83% 3.6 mph SE5.8 kmh SE 3.7 mph6.0 kmh 29.10 in985.4 mb 0.00 in0.0 mm 0.00 in0.0 mm 0.02 in0.5 mm
06:40 PM 35.8°F2.1°C 37.0°F2.8°C 82% 5.2 mph SE8.4 kmh SE 5.3 mph8.5 kmh 29.10 in985.4 mb 0.00 in0.0 mm 0.00 in0.0 mm 0.02 in0.5 mm
06:43 PM 36.1°F2.3°C 36.7°F2.6°C 81% 5.3 mph SE8.5 kmh SE 5.3 mph8.5 kmh 29.10 in985.4 mb 0.00 in0.0 mm 0.00 in0.0 mm 0.02 in0.5 mm
06:46 PM 36.4°F2.4°C 36.3°F2.4°C 81% 6.9 mph SE11.1 kmh SE 6.9 mph11.1 kmh 29.10 in985.4 mb 0.00 in0.0 mm 0.00 in0.0 mm 0.02 in0.5 mm
06:49 PM 36.6°F2.6°C 36.3°F2.4°C 80% 4.8 mph SE7.7 kmh SE 4.8 mph7.7 kmh 29.10 in985.4 mb 0.00 in0.0 mm 0.00 in0.0 mm 0.02 in0.5 mm
06:52 PM 36.1°F2.3°C 36.2°F2.3°C 79% 4.6 mph SE7.4 kmh SE 4.7 mph7.6 kmh 29.10 in985.4 mb 0.00 in0.0 mm 0.00 in0.0 mm 0.02 in0.5 mm
06:55 PM 36.5°F2.5°C 35.5°F1.9°C 78% 6.3 mph SE10.1 kmh SE 6.4 mph10.3 kmh 29.10 in985.4 mb 0.00 in0.0 mm 0.00 in0.0 mm 0.02 in0.5 mm
06:58 PM 36.3°F2.4°C 36.0°F2.2°C 79% 5.3 mph E8.5 kmh E 5.3 mph8.5 kmh 29.10 in985.4 mb 0.00 in0.0 mm 0.00 in0.0 mm 0.02 in0.5 mm
07:01 PM 35.9°F2.2°C 36.4°F2.4°C 79% 3.6 mph SE5.8 kmh SE 3.7 mph6.0 kmh 29.09 in985.1 mb 0.00 in0.0 mm 0.00 in0.0 mm 0.02 in0.5 mm
07:04 PM 37.0°F2.8°C 35.8°F2.1°C 78% 4.4 mph SE7.1 kmh SE 4.5 mph7.2 kmh 29.09 in985.1 mb 0.00 in0.0 mm 0.00 in0.0 mm 0.02 in0.5 mm
07:07 PM 36.5°F2.5°C 35.8°F2.1°C 78% 8.7 mph ESE14.0 kmh ESE 8.8 mph14.2 kmh 29.10 in985.4 mb 0.00 in0.0 mm 0.00 in0.0 mm 0.02 in0.5 mm
07:10 PM 36.8°F2.7°C 35.5°F1.9°C 77% 8.0 mph NNW12.9 kmh NNW 8.0 mph12.9 kmh 29.09 in985.1 mb 0.00 in0.0 mm 0.00 in0.0 mm 0.02 in0.5 mm
07:13 PM 36.7°F2.6°C 35.6°F2.0°C 77% 7.7 mph SE12.4 kmh SE 7.7 mph12.4 kmh 29.10 in985.4 mb 0.00 in0.0 mm 0.00 in0.0 mm 0.02 in0.5 mm
07:16 PM 36.4°F2.4°C 35.8°F2.1°C 78% 6.8 mph SE10.9 kmh SE 6.8 mph10.9 kmh 29.10 in985.4 mb 0.00 in0.0 mm 0.00 in0.0 mm 0.02 in0.5 mm
07:19 PM 36.3°F2.4°C 35.5°F1.9°C 77% 6.9 mph SE11.1 kmh SE 6.9 mph11.1 kmh 29.11 in985.8 mb 0.00 in0.0 mm 0.00 in0.0 mm 0.02 in0.5 mm
07:22 PM 36.5°F2.5°C 35.5°F1.9°C 77% 5.2 mph SE8.4 kmh SE 5.3 mph8.5 kmh 29.11 in985.8 mb 0.00 in0.0 mm 0.00 in0.0 mm 0.02 in0.5 mm
07:25 PM 36.7°F2.6°C 35.5°F1.9°C 77% 4.4 mph SSE7.1 kmh SSE 4.4 mph7.1 kmh 29.12 in986.1 mb 0.00 in0.0 mm 0.00 in0.0 mm 0.02 in0.5 mm
07:28 PM 36.4°F2.4°C 35.3°F1.8°C 76% 4.8 mph SSE7.7 kmh SSE 4.9 mph7.9 kmh 29.11 in985.8 mb 0.00 in0.0 mm 0.00 in0.0 mm 0.02 in0.5 mm
07:31 PM 36.6°F2.6°C 35.0°F1.7°C 77% 6.1 mph SSE9.8 kmh SSE 6.1 mph9.8 kmh 29.10 in985.4 mb 0.00 in0.0 mm 0.00 in0.0 mm 0.02 in0.5 mm
07:34 PM 36.5°F2.5°C 35.5°F1.9°C 77% 4.9 mph SSE7.9 kmh SSE 4.9 mph7.9 kmh 29.11 in985.8 mb 0.00 in0.0 mm 0.00 in0.0 mm 0.02 in0.5 mm
07:37 PM 36.3°F2.4°C 35.5°F1.9°C 78% 5.4 mph NNW8.7 kmh NNW 5.5 mph8.9 kmh 29.10 in985.4 mb 0.00 in0.0 mm 0.00 in0.0 mm 0.02 in0.5 mm
07:40 PM 36.4°F2.4°C 35.4°F1.9°C 77% 3.6 mph SSE5.8 kmh SSE 3.7 mph6.0 kmh 29.10 in985.4 mb 0.00 in0.0 mm 0.00 in0.0 mm 0.02 in0.5 mm
07:43 PM 36.2°F2.3°C 35.7°F2.1°C 78% 3.2 mph SE5.1 kmh SE 3.3 mph5.3 kmh 29.11 in985.8 mb 0.00 in0.0 mm 0.00 in0.0 mm 0.02 in0.5 mm
07:46 PM 36.1°F2.3°C 35.5°F1.9°C 78% 8.8 mph SE14.2 kmh SE 8.9 mph14.3 kmh 29.11 in985.8 mb 0.00 in0.0 mm 0.00 in0.0 mm 0.02 in0.5 mm
07:49 PM 35.9°F2.2°C 35.6°F2.0°C 79% 8.7 mph ESE14.0 kmh ESE 8.8 mph14.2 kmh 29.11 in985.8 mb 0.00 in0.0 mm 0.00 in0.0 mm 0.02 in0.5 mm
07:52 PM 35.9°F2.2°C 35.6°F2.0°C 78% 6.5 mph NNW10.5 kmh NNW 6.6 mph10.6 kmh 29.10 in985.4 mb 0.00 in0.0 mm 0.00 in0.0 mm 0.02 in0.5 mm
07:55 PM 35.6°F2.0°C 35.8°F2.1°C 79% 3.6 mph SE5.8 kmh SE 3.6 mph5.8 kmh 29.11 in985.8 mb 0.00 in0.0 mm 0.00 in0.0 mm 0.02 in0.5 mm
07:58 PM 35.7°F2.1°C 35.6°F2.0°C 79% 4.9 mph NNW7.9 kmh NNW 4.9 mph7.9 kmh 29.11 in985.8 mb 0.00 in0.0 mm 0.00 in0.0 mm 0.02 in0.5 mm
08:01 PM 35.5°F1.9°C 35.8°F2.1°C 79% 3.1 mph NNW5.0 kmh NNW 3.1 mph5.0 kmh 29.11 in985.8 mb 0.00 in0.0 mm 0.00 in0.0 mm 0.02 in0.5 mm
08:04 PM 35.7°F2.1°C 35.6°F2.0°C 80% 9.6 mph ESE15.4 kmh ESE 9.6 mph15.4 kmh 29.12 in986.1 mb 0.00 in0.0 mm 0.00 in0.0 mm 0.02 in0.5 mm
08:07 PM 35.6°F2.0°C 35.9°F2.2°C 80% 7.3 mph SE11.7 kmh SE 7.3 mph11.7 kmh 29.12 in986.1 mb 0.00 in0.0 mm 0.00 in0.0 mm 0.02 in0.5 mm
08:10 PM 35.7°F2.1°C 35.3°F1.8°C 80% 8.5 mph ESE13.7 kmh ESE 8.5 mph13.7 kmh 29.11 in985.8 mb 0.00 in0.0 mm 0.00 in0.0 mm 0.02 in0.5 mm
08:13 PM 35.6°F2.0°C 35.5°F1.9°C 80% 5.6 mph SE9.0 kmh SE 5.7 mph9.2 kmh 29.12 in986.1 mb 0.00 in0.0 mm 0.00 in0.0 mm 0.02 in0.5 mm
08:16 PM 35.6°F2.0°C 35.5°F1.9°C 80% 6.7 mph SE10.8 kmh SE 6.8 mph10.9 kmh 29.11 in985.8 mb 0.00 in0.0 mm 0.00 in0.0 mm 0.02 in0.5 mm
08:19 PM 35.5°F1.9°C 35.6°F2.0°C 80% 8.9 mph ESE14.3 kmh ESE 8.9 mph14.3 kmh 29.12 in986.1 mb 0.00 in0.0 mm 0.00 in0.0 mm 0.02 in0.5 mm
08:22 PM 35.2°F1.8°C 35.6°F2.0°C 81% 8.1 mph ESE13.0 kmh ESE 8.1 mph13.0 kmh 29.12 in986.1 mb 0.00 in0.0 mm 0.00 in0.0 mm 0.02 in0.5 mm
08:25 PM 35.3°F1.8°C 35.7°F2.1°C 81% 6.4 mph SE10.3 kmh SE 6.5 mph10.5 kmh 29.11 in985.8 mb 0.00 in0.0 mm 0.00 in0.0 mm 0.02 in0.5 mm
08:28 PM 35.2°F1.8°C 36.1°F2.3°C 81% 7.6 mph NNW12.2 kmh NNW 7.6 mph12.2 kmh 29.11 in985.8 mb 0.00 in0.0 mm 0.00 in0.0 mm 0.02 in0.5 mm
08:31 PM 35.3°F1.8°C 35.9°F2.2°C 81% 6.5 mph ESE10.5 kmh ESE 6.5 mph10.5 kmh 29.11 in985.8 mb 0.00 in0.0 mm 0.00 in0.0 mm 0.02 in0.5 mm
08:34 PM 35.2°F1.8°C 36.0°F2.2°C 81% 5.9 mph SE9.5 kmh SE 6.0 mph9.7 kmh 29.10 in985.4 mb 0.00 in0.0 mm 0.00 in0.0 mm 0.02 in0.5 mm
08:37 PM 35.3°F1.8°C 36.1°F2.3°C 81% 1.6 mph SE2.6 kmh SE 1.6 mph2.6 kmh 29.10 in985.4 mb 0.00 in0.0 mm 0.00 in0.0 mm 0.02 in0.5 mm
08:40 PM 35.3°F1.8°C 36.3°F2.4°C 81% 2.0 mph SE3.2 kmh SE 2.0 mph3.2 kmh 29.10 in985.4 mb 0.00 in0.0 mm 0.00 in0.0 mm 0.02 in0.5 mm
08:43 PM 35.0°F1.7°C 36.5°F2.5°C 81% Calm Calm -- 29.10 in985.4 mb 0.00 in0.0 mm 0.00 in0.0 mm 0.02 in0.5 mm
08:46 PM 34.9°F1.6°C 36.5°F2.5°C 81% 2.0 mph SE3.2 kmh SE 2.0 mph3.2 kmh 29.10 in985.4 mb 0.00 in0.0 mm 0.00 in0.0 mm 0.02 in0.5 mm
08:49 PM 34.9°F1.6°C 36.5°F2.5°C 81% 2.4 mph SE3.9 kmh SE 2.4 mph3.9 kmh 29.10 in985.4 mb 0.00 in0.0 mm 0.00 in0.0 mm 0.02 in0.5 mm
08:52 PM 34.9°F1.6°C 36.3°F2.4°C 81% 4.4 mph NNW7.1 kmh NNW 4.5 mph7.2 kmh 29.10 in985.4 mb 0.00 in0.0 mm 0.00 in0.0 mm 0.02 in0.5 mm
08:55 PM 34.9°F1.6°C 36.1°F2.3°C 81% 3.6 mph SE5.8 kmh SE 3.7 mph6.0 kmh 29.10 in985.4 mb 0.00 in0.0 mm 0.00 in0.0 mm 0.02 in0.5 mm
08:58 PM 35.0°F1.7°C 36.1°F2.3°C 81% 3.6 mph SE5.8 kmh SE 3.6 mph5.8 kmh 29.10 in985.4 mb 0.00 in0.0 mm 0.00 in0.0 mm 0.02 in0.5 mm
09:01 PM 35.0°F1.7°C 36.0°F2.2°C 81% 5.6 mph ESE9.0 kmh ESE 5.6 mph9.0 kmh 29.10 in985.4 mb 0.00 in0.0 mm 0.00 in0.0 mm 0.02 in0.5 mm
09:04 PM 35.0°F1.7°C 36.0°F2.2°C 81% 6.0 mph ESE9.7 kmh ESE 6.1 mph9.8 kmh 29.10 in985.4 mb 0.00 in0.0 mm 0.00 in0.0 mm 0.02 in0.5 mm
09:07 PM 35.0°F1.7°C 35.7°F2.1°C 81% 5.2 mph NNW8.4 kmh NNW 5.3 mph8.5 kmh 29.11 in985.8 mb 0.00 in0.0 mm 0.00 in0.0 mm 0.02 in0.5 mm
09:10 PM 34.9°F1.6°C 35.8°F2.1°C 81% 3.6 mph NNW5.8 kmh NNW 3.7 mph6.0 kmh 29.11 in985.8 mb 0.00 in0.0 mm 0.00 in0.0 mm 0.02 in0.5 mm
09:13 PM 34.7°F1.5°C 36.3°F2.4°C 81% 3.9 mph ESE6.3 kmh ESE 3.9 mph6.3 kmh 29.11 in985.8 mb 0.00 in0.0 mm 0.00 in0.0 mm 0.02 in0.5 mm
09:16 PM 34.6°F1.4°C 35.8°F2.1°C 81% 3.2 mph ESE5.1 kmh ESE 3.3 mph5.3 kmh 29.11 in985.8 mb 0.00 in0.0 mm 0.00 in0.0 mm 0.02 in0.5 mm
09:19 PM 34.8°F1.6°C 35.7°F2.1°C 81% 3.2 mph SE5.1 kmh SE 3.3 mph5.3 kmh 29.11 in985.8 mb 0.00 in0.0 mm 0.00 in0.0 mm 0.02 in0.5 mm
09:22 PM 34.7°F1.5°C 36.1°F2.3°C 82% 3.6 mph SE5.8 kmh SE 3.7 mph6.0 kmh 29.11 in985.8 mb 0.00 in0.0 mm 0.00 in0.0 mm 0.02 in0.5 mm
09:25 PM 34.6°F1.4°C 36.1°F2.3°C 82% 4.4 mph NNW7.1 kmh NNW 4.4 mph7.1 kmh 29.11 in985.8 mb 0.00 in0.0 mm 0.00 in0.0 mm 0.02 in0.5 mm
09:28 PM 34.6°F1.4°C 35.9°F2.2°C 81% 3.9 mph SE6.3 kmh SE 4.0 mph6.4 kmh 29.12 in986.1 mb 0.00 in0.0 mm 0.00 in0.0 mm 0.02 in0.5 mm
09:31 PM 34.5°F1.4°C 35.8°F2.1°C 82% 3.2 mph NNW5.1 kmh NNW 3.2 mph5.1 kmh 29.12 in986.1 mb 0.00 in0.0 mm 0.00 in0.0 mm 0.02 in0.5 mm
09:34 PM 34.5°F1.4°C 36.0°F2.2°C 81% 2.4 mph SE3.9 kmh SE 2.4 mph3.9 kmh 29.12 in986.1 mb 0.00 in0.0 mm 0.00 in0.0 mm 0.02 in0.5 mm
09:37 PM 34.5°F1.4°C 36.1°F2.3°C 81% Calm Calm -- 29.12 in986.1 mb 0.00 in0.0 mm 0.00 in0.0 mm 0.02 in0.5 mm
09:40 PM 34.4°F1.3°C 36.1°F2.3°C 81% Calm Calm -- 29.12 in986.1 mb 0.00 in0.0 mm 0.00 in0.0 mm 0.02 in0.5 mm
09:43 PM 34.5°F1.4°C 35.9°F2.2°C 82% 2.0 mph SE3.2 kmh SE 2.0 mph3.2 kmh 29.11 in985.8 mb 0.00 in0.0 mm 0.00 in0.0 mm 0.02 in0.5 mm
09:46 PM 34.6°F1.4°C 36.2°F2.3°C 82% 2.3 mph NNW3.7 kmh NNW 2.3 mph3.7 kmh 29.11 in985.8 mb 0.00 in0.0 mm 0.00 in0.0 mm 0.02 in0.5 mm
09:49 PM 34.5°F1.4°C 36.2°F2.3°C 82% 2.4 mph ESE3.9 kmh ESE 2.4 mph3.9 kmh 29.10 in985.4 mb 0.00 in0.0 mm 0.00 in0.0 mm 0.02 in0.5 mm
09:52 PM 34.4°F1.3°C 36.3°F2.4°C 82% 3.2 mph ESE5.1 kmh ESE 3.3 mph5.3 kmh 29.10 in985.4 mb 0.00 in0.0 mm 0.00 in0.0 mm 0.02 in0.5 mm
09:55 PM 34.5°F1.4°C 36.3°F2.4°C 83% 2.0 mph SE3.2 kmh SE 2.0 mph3.2 kmh 29.11 in985.8 mb 0.00 in0.0 mm 0.00 in0.0 mm 0.02 in0.5 mm
09:58 PM 34.3°F1.3°C 36.4°F2.4°C 83% Calm Calm -- 29.10 in985.4 mb 0.00 in0.0 mm 0.00 in0.0 mm 0.02 in0.5 mm
10:01 PM 34.3°F1.3°C 35.9°F2.2°C 81% Calm Calm -- 29.11 in985.8 mb 0.00 in0.0 mm 0.00 in0.0 mm 0.02 in0.5 mm
10:04 PM 34.4°F1.3°C 36.4°F2.4°C 82% Calm Calm -- 29.10 in985.4 mb 0.00 in0.0 mm 0.00 in0.0 mm 0.02 in0.5 mm
10:07 PM 34.1°F1.2°C 36.3°F2.4°C 82% Calm Calm -- 29.10 in985.4 mb 0.00 in0.0 mm 0.00 in0.0 mm 0.02 in0.5 mm
10:10 PM 34.1°F1.2°C 36.6°F2.6°C 83% Calm Calm -- 29.11 in985.8 mb 0.00 in0.0 mm 0.00 in0.0 mm 0.02 in0.5 mm
10:13 PM 34.1°F1.2°C 36.4°F2.4°C 83% Calm Calm -- 29.10 in985.4 mb 0.00 in0.0 mm 0.00 in0.0 mm 0.02 in0.5 mm
10:16 PM 34.1°F1.2°C 36.2°F2.3°C 83% Calm Calm -- 29.11 in985.8 mb 0.00 in0.0 mm 0.00 in0.0 mm 0.02 in0.5 mm
10:19 PM 34.1°F1.2°C 36.5°F2.5°C 83% Calm Calm -- 29.10 in985.4 mb 0.00 in0.0 mm 0.00 in0.0 mm 0.02 in0.5 mm
10:22 PM 34.1°F1.2°C 36.4°F2.4°C 83% Calm Calm -- 29.10 in985.4 mb 0.00 in0.0 mm 0.00 in0.0 mm 0.02 in0.5 mm
10:25 PM 34.1°F1.2°C 36.4°F2.4°C 83% Calm Calm -- 29.10 in985.4 mb 0.00 in0.0 mm 0.00 in0.0 mm 0.02 in0.5 mm
10:28 PM 34.0°F1.1°C 36.6°F2.6°C 83% Calm Calm -- 29.10 in985.4 mb 0.00 in0.0 mm 0.00 in0.0 mm 0.02 in0.5 mm
10:31 PM 34.1°F1.2°C 36.7°F2.6°C 84% Calm Calm -- 29.10 in985.4 mb 0.00 in0.0 mm 0.00 in0.0 mm 0.02 in0.5 mm
10:34 PM 34.0°F1.1°C 36.5°F2.5°C 84% Calm Calm -- 29.10 in985.4 mb 0.00 in0.0 mm 0.00 in0.0 mm 0.02 in0.5 mm
10:37 PM 33.9°F1.1°C 36.5°F2.5°C 84% Calm Calm -- 29.10 in985.4 mb 0.00 in0.0 mm 0.00 in0.0 mm 0.02 in0.5 mm
10:40 PM 33.9°F1.1°C 36.8°F2.7°C 84% Calm Calm -- 29.10 in985.4 mb 0.00 in0.0 mm 0.00 in0.0 mm 0.02 in0.5 mm
10:43 PM 33.9°F1.1°C 36.4°F2.4°C 83% Calm Calm -- 29.10 in985.4 mb 0.00 in0.0 mm 0.00 in0.0 mm 0.02 in0.5 mm
10:46 PM 33.9°F1.1°C 36.6°F2.6°C 85% Calm Calm -- 29.10 in985.4 mb 0.00 in0.0 mm 0.00 in0.0 mm 0.02 in0.5 mm
10:49 PM 34.0°F1.1°C 36.6°F2.6°C 85% Calm Calm -- 29.10 in985.4 mb 0.00 in0.0 mm 0.00 in0.0 mm 0.02 in0.5 mm
10:55 PM 33.9°F1.1°C 36.8°F2.7°C 85% Calm Calm -- 29.10 in985.4 mb 0.00 in0.0 mm 0.00 in0.0 mm 0.02 in0.5 mm
10:58 PM 33.9°F1.1°C 37.0°F2.8°C 86% Calm Calm -- 29.10 in985.4 mb 0.00 in0.0 mm 0.00 in0.0 mm 0.02 in0.5 mm
11:01 PM 34.1°F1.2°C 36.8°F2.7°C 85% Calm Calm -- 29.09 in985.1 mb 0.00 in0.0 mm 0.00 in0.0 mm 0.02 in0.5 mm
11:04 PM 34.0°F1.1°C 36.9°F2.7°C 86% Calm Calm -- 29.09 in985.1 mb 0.00 in0.0 mm 0.00 in0.0 mm 0.04 in1.0 mm
11:07 PM 33.9°F1.1°C 36.9°F2.7°C 86% Calm Calm -- 29.10 in985.4 mb 0.00 in0.0 mm 0.00 in0.0 mm 0.04 in1.0 mm
11:10 PM 34.0°F1.1°C 36.9°F2.7°C 86% Calm Calm -- 29.10 in985.4 mb 0.00 in0.0 mm 0.00 in0.0 mm 0.04 in1.0 mm
11:13 PM 33.9°F1.1°C 37.1°F2.8°C 86% Calm Calm -- 29.10 in985.4 mb 0.00 in0.0 mm 0.00 in0.0 mm 0.04 in1.0 mm
11:16 PM 33.9°F1.1°C 36.8°F2.7°C 86% Calm Calm -- 29.10 in985.4 mb 0.00 in0.0 mm 0.00 in0.0 mm 0.04 in1.0 mm
11:19 PM 33.8°F1.0°C 37.0°F2.8°C 86% Calm Calm -- 29.10 in985.4 mb 0.00 in0.0 mm 0.00 in0.0 mm 0.04 in1.0 mm
11:22 PM 33.8°F1.0°C 36.8°F2.7°C 85% Calm Calm -- 29.10 in985.4 mb 0.00 in0.0 mm 0.00 in0.0 mm 0.04 in1.0 mm
11:25 PM 33.8°F1.0°C 37.0°F2.8°C 86% Calm Calm -- 29.10 in985.4 mb 0.00 in0.0 mm 0.00 in0.0 mm 0.04 in1.0 mm
11:28 PM 33.8°F1.0°C 36.9°F2.7°C 86% Calm Calm -- 29.10 in985.4 mb 0.00 in0.0 mm 0.00 in0.0 mm 0.04 in1.0 mm
11:31 PM 33.8°F1.0°C 37.1°F2.8°C 86% Calm Calm -- 29.10 in985.4 mb 0.00 in0.0 mm 0.00 in0.0 mm 0.04 in1.0 mm
11:37 PM 33.7°F0.9°C 36.8°F2.7°C 86% Calm Calm -- 29.10 in985.4 mb 0.00 in0.0 mm 0.00 in0.0 mm 0.04 in1.0 mm
11:40 PM 33.6°F0.9°C 37.0°F2.8°C 86% Calm Calm -- 29.10 in985.4 mb 0.00 in0.0 mm 0.00 in0.0 mm 0.04 in1.0 mm
11:43 PM 33.7°F0.9°C 36.9°F2.7°C 86% Calm Calm -- 29.10 in985.4 mb 0.00 in0.0 mm 0.00 in0.0 mm 0.04 in1.0 mm
11:46 PM 33.7°F0.9°C 37.0°F2.8°C 86% Calm Calm -- 29.10 in985.4 mb 0.00 in0.0 mm 0.00 in0.0 mm 0.04 in1.0 mm
11:49 PM 33.8°F1.0°C 36.8°F2.7°C 86% Calm Calm -- 29.11 in985.8 mb 0.00 in0.0 mm 0.00 in0.0 mm 0.04 in1.0 mm
11:52 PM 33.8°F1.0°C 36.8°F2.7°C 86% Calm Calm -- 29.11 in985.8 mb 0.00 in0.0 mm 0.00 in0.0 mm 0.04 in1.0 mm
11:55 PM 33.8°F1.0°C 36.7°F2.6°C 85% Calm Calm -- 29.10 in985.4 mb 0.00 in0.0 mm 0.00 in0.0 mm 0.04 in1.0 mm
11:58 PM 33.8°F1.0°C 37.2°F2.9°C 87% Calm Calm -- 29.10 in985.4 mb 0.00 in0.0 mm 0.00 in0.0 mm 0.04 in1.0 mm